U21902 / G-UZHL 7700 Squawk Report (20th of March, 2019)

Aircraft A20N Reg No. G-UZHL Age 8 months old
Model A320 Jet engines 2 First flight 14-08-18
Registered 23-08-18 Rollout N/A Delivered 24-08-18
Construction No. 8375 Line No. N/A Series 251N(SL)
ADSHEX 40756B Airline name easyJet Owner N/A
Airfield based Luton~Beds~G First tracked 2018-08-29 00:36:00

Flight history for G-UZHL

Route Flight No Date Playback
Ben Gurion (TLV) - Luton (LTN) U22084 2019-04-22 16:11:00
Luton (LTN) - Ben Gurion (TLV) U22083 2019-04-22 11:09:00
Ben Gurion (TLV) - Luton (LTN) U22086 2019-04-22 06:45:00
Luton (LTN) - Ben Gurion (TLV) U22085 2019-04-21 16:00:00
Geneve Cointrin (GVA) - Luton (LTN) U22054 2019-04-21 09:00:00
Luton (LTN) - Geneve Cointrin (GVA) U22053 2019-04-21 06:42:00
Ben Gurion (TLV) - Luton (LTN) U22086 2019-04-20 23:27:00
Luton (LTN) - Ben Gurion (TLV) U22085 2019-04-20 16:21:00
Son Sant Joan (PMI) - Luton (LTN) U22272 2019-04-20 11:45:00
Luton (LTN) - Son Sant Joan (PMI) U22271 2019-04-20 08:24:00
Barcelona–El Prat (BCN) - Luton (LTN) U22268 2019-04-19 21:42:00
Luton (LTN) - Barcelona–El Prat (BCN) U22267 2019-04-19 19:39:00
Zurich (ZRH) - Luton (LTN) U22046 2019-04-19 16:20:00
Luton (LTN) - Zurich (ZRH) U22045 2019-04-19 13:50:00
Malaga (AGP) - Luton (LTN) U22406 2019-04-19 12:16:00
Luton (LTN) - Malaga (AGP) U22405 2019-04-19 08:44:00
Ben Gurion (TLV) - Luton (LTN) U22084 2019-04-18 22:07:00
Luton (LTN) - Ben Gurion (TLV) U22083 2019-04-18 13:08:00
Rhodes Diagoras (RHO) - Luton (LTN) U22006 2019-04-17 22:52:00
Luton (LTN) - Rhodes Diagoras (RHO) U22005 2019-04-17 18:46:00
Time Lat Lon Altitude Heading Speed Vertical Rate
2019-03-20 16:39:03 GMT 44.788239 -0.772509 675 45 123 -768
2019-03-20 16:38:47 GMT 44.782089 -0.780900 775 42 124 -768
2019-03-20 16:38:39 GMT 44.778809 -0.785130 975 44 123 -768
2019-03-20 16:38:32 GMT 44.775604 -0.789577 1,050 45 121 -640
2019-03-20 16:38:23 GMT 44.772266 -0.794164 1,150 45 120 -640
2019-03-20 16:38:17 GMT 44.770031 -0.797313 1,200 45 120 -704
2019-03-20 16:38:12 GMT 44.768028 -0.800126 1,275 44 120 -704
2019-03-20 16:38:01 GMT 44.763374 -0.806423 1,400 43 123 -768
2019-03-20 16:37:53 GMT 44.759560 -0.811314 1,525 41 126 -832
2019-03-20 16:37:40 GMT 44.754318 -0.818024 1,700 43 127 -896
2019-03-20 16:37:32 GMT 44.750793 -0.822667 1,800 45 125 -512
2019-03-20 16:37:22 GMT 44.746902 -0.828683 1,900 49 123 -512
2019-03-20 16:37:15 GMT 44.744339 -0.832803 1,975 47 121 -704
2019-03-20 16:37:11 GMT 44.742828 -0.835092 2,025 46 121 -704
2019-03-20 16:37:05 GMT 44.740448 -0.838427 2,100 43 123 -832
2019-03-20 16:37:00 GMT 44.738480 -0.841108 2,150 42 125 -832
2019-03-20 16:36:55 GMT 44.736237 -0.843985 2,225 41 127 -896
2019-03-20 16:36:50 GMT 44.734268 -0.846470 2,300 42 129 -896
2019-03-20 16:36:44 GMT 44.731487 -0.850101 2,400 45 130 -896
2019-03-20 16:36:40 GMT 44.730045 -0.852177 2,450 48 127 -896
2019-03-20 16:36:33 GMT 44.726784 -0.857470 2,525 50 123 -128
2019-03-20 16:36:30 GMT 44.726166 -0.858503 2,525 50 122 -64
2019-03-20 16:36:20 GMT 44.722408 -0.864771 2,525 47 122 128
2019-03-20 16:36:13 GMT 44.719482 -0.869359 2,525 55 126 0
2019-03-20 16:36:09 GMT 44.718475 -0.871451 2,525 62 129 -192
2019-03-20 16:36:00 GMT 44.715984 -0.879576 2,550 69 142 -64
2019-03-20 16:35:52 GMT 44.714218 -0.886557 2,625 71 143 -832
2019-03-20 16:35:41 GMT 44.711700 -0.897609 2,775 72 143 -512
2019-03-20 16:35:29 GMT 44.709686 -0.906634 2,875 72 142 -448
2019-03-20 16:35:18 GMT 44.707512 -0.915818 2,950 70 146 -448
2019-03-20 16:35:10 GMT 44.705338 -0.923832 3,025 68 154 -768
2019-03-20 16:35:07 GMT 44.704926 -0.925337 3,025 68 156 -704
2019-03-20 16:34:57 GMT 44.702251 -0.934910 3,125 67 161 -576
2019-03-20 16:34:47 GMT 44.699226 -0.945159 3,225 67 166 -448
2019-03-20 16:34:36 GMT 44.696091 -0.955745 3,300 66 175 -512
2019-03-20 16:34:27 GMT 44.692978 -0.966078 3,400 68 184 -384
2019-03-20 16:34:15 GMT 44.689590 -0.979156 3,575 71 188 -512
2019-03-20 16:34:06 GMT 44.686066 -0.994263 3,625 72 190 -576
2019-03-20 16:33:55 GMT 44.681259 -1.014993 3,825 71 192 -512
2019-03-20 16:33:45 GMT 44.681259 -1.014993 3,800 69 195 -512
2019-03-20 16:33:34 GMT 44.677734 -1.028203 3,900 68 202 -576
2019-03-20 16:33:23 GMT 44.674210 -1.040889 4,000 68 207 -704
2019-03-20 16:33:14 GMT 44.670734 -1.053080 4,150 67 212 -896
2019-03-20 16:33:03 GMT 44.666565 -1.066982 4,350 67 213 -1408
2019-03-20 16:32:56 GMT 44.664185 -1.075156 4,475 67 213 -512
2019-03-20 16:32:53 GMT 44.662766 -1.080191 4,525 67 213 -448
2019-03-20 16:32:45 GMT 44.659927 -1.089935 4,600 67 213 -576
2019-03-20 16:32:41 GMT 44.658726 -1.094211 4,625 68 213 -576
2019-03-20 16:32:32 GMT 44.654846 -1.107788 4,725 68 213 -512
2019-03-20 16:32:20 GMT 44.650810 -1.121945 4,825 68 212 -640
2019-03-20 16:32:11 GMT 44.647202 -1.134862 4,925 69 213 -640
2019-03-20 16:32:02 GMT 44.644363 -1.145913 5,025 70 212 -704
2019-03-20 16:31:56 GMT 44.642570 -1.153163 5,100 71 213 -640
2019-03-20 16:31:49 GMT 44.640427 -1.162262 5,150 72 212 -512
2019-03-20 16:31:41 GMT 44.638000 -1.172856 5,225 72 212 -448
2019-03-20 16:31:38 GMT 44.637218 -1.176207 5,250 72 212 -448
2019-03-20 16:31:31 GMT 44.634888 -1.186196 5,300 71 213 -576
2019-03-20 16:31:28 GMT 44.634052 -1.189806 5,325 70 213 -576
2019-03-20 16:31:18 GMT 44.630539 -1.203657 5,450 69 218 -640
2019-03-20 16:31:10 GMT 44.627975 -1.213401 5,525 69 221 -576
2019-03-20 16:31:06 GMT 44.626511 -1.219013 5,550 69 224 -576
2019-03-20 16:31:00 GMT 44.624222 -1.227657 5,625 69 227 -576
2019-03-20 16:30:56 GMT 44.622509 -1.233952 5,650 68 230 -512
2019-03-20 16:30:50 GMT 44.620422 -1.241586 5,725 68 234 -640
2019-03-20 16:30:44 GMT 44.618458 -1.248556 5,775 68 238 -576
2019-03-20 16:30:39 GMT 44.616165 -1.256496 5,825 67 242 -640
2019-03-20 16:30:35 GMT 44.614105 -1.263493 5,875 67 246 -640
2019-03-20 16:30:29 GMT 44.609428 -1.279304 6,050 67 257 -640
2019-03-20 16:30:23 GMT 44.609428 -1.279304 5,975 67 253 -640
2019-03-20 16:30:19 GMT 44.607239 -1.286606 6,025 67 257 -640
2019-03-20 16:30:13 GMT 44.604721 -1.295340 6,100 69 261 -640
2019-03-20 16:30:09 GMT 44.602524 -1.303188 6,150 69 260 -640
2019-03-20 16:30:02 GMT 44.600163 -1.312129 6,200 69 261 -512
2019-03-20 16:29:58 GMT 44.598083 -1.320125 6,250 69 259 -576
2019-03-20 16:29:52 GMT 44.595741 -1.328676 6,300 69 257 -640
2019-03-20 16:29:48 GMT 44.593872 -1.335624 6,350 68 256 -576
2019-03-20 16:29:42 GMT 44.591217 -1.345040 6,425 69 257 -832
2019-03-20 16:29:37 GMT 44.589478 -1.351449 6,475 69 258 -768
2019-03-20 16:29:29 GMT 44.586273 -1.363678 6,550 69 256 -448
2019-03-20 16:29:25 GMT 44.584488 -1.370348 6,600 69 256 -448
2019-03-20 16:29:21 GMT 44.582291 -1.378588 6,650 68 256 -576
2019-03-20 16:29:17 GMT 44.580826 -1.383885 6,675 68 255 -704
2019-03-20 16:29:10 GMT 44.578033 -1.394021 6,775 69 255 -896
2019-03-20 16:29:07 GMT 44.576702 -1.399082 6,825 70 256 -896
2019-03-20 16:29:00 GMT 44.573685 -1.410893 6,925 70 256 -768
2019-03-20 16:28:55 GMT 44.572044 -1.417370 6,975 70 256 -768
2019-03-20 16:28:49 GMT 44.569611 -1.427307 7,050 70 254 -704
2019-03-20 16:28:45 GMT 44.568180 -1.432979 7,100 69 254 -768
2019-03-20 16:28:39 GMT 44.565434 -1.443295 7,200 69 254 -1024
2019-03-20 16:28:36 GMT 44.563980 -1.448757 7,250 69 254 -1152
2019-03-20 16:28:28 GMT 44.561012 -1.459440 7,400 68 254 -1216
2019-03-20 16:28:24 GMT 44.559292 -1.465603 7,475 68 254 -1216
2019-03-20 16:28:18 GMT 44.556244 -1.476419 7,625 68 254 -1216
2019-03-20 16:28:14 GMT 44.555008 -1.480865 7,675 68 255 -1216
2019-03-20 16:28:02 GMT 44.549934 -1.498696 7,925 68 254 -1216
2019-03-20 16:27:53 GMT 44.545715 -1.513301 8,125 68 254 -1216
2019-03-20 16:27:44 GMT 44.540405 -1.532331 8,375 69 254 -1216
2019-03-20 16:27:31 GMT 44.536713 -1.546527 8,550 70 253 -1152
2019-03-20 16:27:24 GMT 44.533539 -1.558947 8,700 70 254 -1024
2019-03-20 16:27:13 GMT 44.529510 -1.574576 8,875 69 253 -960
2019-03-20 16:27:07 GMT 44.527122 -1.583505 8,950 68 253 -896
2019-03-20 16:27:02 GMT 44.524933 -1.591343 9,025 68 253 -896
2019-03-20 16:26:58 GMT 44.523354 -1.596970 9,100 68 253 -960
2019-03-20 16:26:52 GMT 44.520744 -1.606148 9,200 67 254 -1024
2019-03-20 16:26:47 GMT 44.518433 -1.614140 9,275 67 255 -1024
2019-03-20 16:26:42 GMT 44.515575 -1.623833 9,400 67 256 -1024
2019-03-20 16:26:37 GMT 44.513714 -1.630063 9,450 67 257 -1024
2019-03-20 16:26:31 GMT 44.511337 -1.638140 9,600 67 257 -1024
2019-03-20 16:26:26 GMT 44.508919 -1.646408 9,650 67 257 -1024
2019-03-20 16:26:21 GMT 44.506668 -1.654162 9,725 67 257 -1024
2019-03-20 16:26:14 GMT 44.503693 -1.664429 9,825 67 259 -1024
2019-03-20 16:26:10 GMT 44.501846 -1.670659 9,900 67 259 -960
2019-03-20 16:26:04 GMT 44.498959 -1.680439 10,000 67 259 -960
2019-03-20 16:25:53 GMT 44.493805 -1.698042 10,200 67 260 -1024
2019-03-20 16:25:50 GMT 44.492432 -1.702750 10,250 68 260 -1024
2019-03-20 16:25:42 GMT 44.489044 -1.714456 10,375 67 261 -1024
2019-03-20 16:25:39 GMT 44.487030 -1.721518 10,400 67 261 -1024
2019-03-20 16:25:31 GMT 44.483459 -1.733682 10,575 67 261 -960
2019-03-20 16:25:20 GMT 44.479034 -1.749037 10,750 68 261 -1024
2019-03-20 16:25:10 GMT 44.474659 -1.764511 10,900 69 262 -1024
2019-03-20 16:24:59 GMT 44.470001 -1.781795 11,100 70 264 -960
2019-03-20 16:24:55 GMT 44.468094 -1.789365 11,175 71 265 -960
2019-03-20 16:24:48 GMT 44.465672 -1.799212 11,275 71 265 -896
2019-03-20 16:24:37 GMT 44.461250 -1.817634 11,425 71 267 -896
2019-03-20 16:24:25 GMT 44.456406 -1.836679 11,625 69 269 -1024
2019-03-20 16:24:15 GMT 44.451736 -1.853812 11,800 68 273 -1088
2019-03-20 16:24:04 GMT 44.446819 -1.871360 12,025 68 283 -1280
2019-03-20 16:23:54 GMT 44.441666 -1.889714 12,225 68 284 -1408
2019-03-20 16:23:43 GMT 44.436584 -1.907894 12,500 68 286 -1856
2019-03-20 16:23:32 GMT 44.431458 -1.926400 12,825 68 288 -1856
2019-03-20 16:23:21 GMT 44.426193 -1.945299 13,200 68 288 -2048
2019-03-20 16:23:10 GMT 44.420700 -1.964918 13,550 68 289 -1856
2019-03-20 16:22:59 GMT 44.415344 -1.984144 13,900 68 291 -1984
2019-03-20 16:22:48 GMT 44.409943 -2.003501 14,250 68 292 -1792
2019-03-20 16:22:44 GMT 44.407810 -2.011168 14,400 69 293 -2048
2019-03-20 16:22:35 GMT 44.403294 -2.027647 14,725 69 292 -2432
2019-03-20 16:22:26 GMT 44.399277 -2.042607 15,050 69 293 -1792
2019-03-20 16:22:19 GMT 44.395752 -2.055490 15,225 68 295 -1408
2019-03-20 16:22:15 GMT 44.393967 -2.061898 15,325 68 295 -1728
2019-03-20 16:22:09 GMT 44.390724 -2.073334 15,525 68 296 -1984
2019-03-20 16:22:04 GMT 44.388165 -2.082445 15,675 68 297 -1920
2019-03-20 16:21:58 GMT 44.385139 -2.093163 15,875 68 298 -1984
2019-03-20 16:21:53 GMT 44.383118 -2.100416 16,025 68 298 -1920
2019-03-20 16:21:48 GMT 44.379639 -2.112776 16,225 68 299 -1984
2019-03-20 16:21:43 GMT 44.377670 -2.119773 16,375 68 299 -2112
2019-03-20 16:21:36 GMT 44.373966 -2.132821 16,625 68 299 -2048
2019-03-20 16:21:32 GMT 44.372196 -2.139118 16,750 68 301 -2048
2019-03-20 16:21:21 GMT 44.366516 -2.159215 17,125 68 302 -1984
2019-03-20 16:21:16 GMT 44.363537 -2.169733 17,300 68 303 -1792
2019-03-20 16:21:10 GMT 44.360931 -2.179044 17,450 68 305 -1600
2019-03-20 16:21:05 GMT 44.358231 -2.188624 17,575 68 308 -1472
2019-03-20 16:20:59 GMT 44.355240 -2.199424 17,725 68 311 -1600
2019-03-20 16:20:55 GMT 44.352596 -2.208855 17,875 68 311 -2112
2019-03-20 16:20:48 GMT 44.349384 -2.220310 18,100 68 311 -2368
2019-03-20 16:20:37 GMT 44.343658 -2.240688 18,525 68 310 -2304
2019-03-20 16:20:26 GMT 44.338028 -2.260772 18,925 68 311 -1984
2019-03-20 16:20:15 GMT 44.332443 -2.280513 19,275 68 312 -2112
2019-03-20 16:20:09 GMT 44.329136 -2.292257 19,525 68 312 -2432
2019-03-20 16:20:05 GMT 44.326721 -2.300786 19,700 68 312 -2432
2019-03-20 16:19:58 GMT 44.323288 -2.313014 19,950 68 312 -2432
2019-03-20 16:19:53 GMT 44.320663 -2.322269 20,150 68 311 -2304
2019-03-20 16:19:43 GMT 44.315323 -2.341069 20,525 68 312 -2240
2019-03-20 16:19:32 GMT 44.309490 -2.361592 20,925 68 314 -1920
2019-03-20 16:19:22 GMT 44.303810 -2.381555 21,250 68 316 -1920
2019-03-20 16:19:11 GMT 44.298111 -2.401559 21,600 68 318 -1984
2019-03-20 16:19:00 GMT 44.292389 -2.421831 21,925 68 320 -1856
2019-03-20 16:18:49 GMT 44.286346 -2.443019 22,275 68 323 -1856
2019-03-20 16:18:38 GMT 44.280304 -2.464338 22,675 68 324 -2496
2019-03-20 16:18:24 GMT 44.271698 -2.494747 23,150 68 322 -2752
2019-03-20 16:18:15 GMT 44.267220 -2.510711 23,775 68 323 -2240
2019-03-20 16:18:12 GMT 44.266068 -2.514627 23,775 68 323 -2240
2019-03-20 16:18:06 GMT 44.262268 -2.527967 24,025 68 324 -2240
2019-03-20 16:17:47 GMT 44.251877 -2.564392 24,650 68 324 -2112
2019-03-20 16:17:43 GMT 44.249680 -2.572043 24,825 68 330 -2432
2019-03-20 16:17:33 GMT 44.244038 -2.591769 25,150 68 330 -2048
2019-03-20 16:17:22 GMT 44.237823 -2.613634 25,525 68 332 -2240
2019-03-20 16:17:10 GMT 44.231236 -2.636518 26,000 68 331 -2752
2019-03-20 16:16:49 GMT 44.219227 -2.678252 26,925 68 330 -2432
2019-03-20 16:16:38 GMT 44.212990 -2.699957 27,350 68 331 -2432
2019-03-20 16:16:23 GMT 44.204407 -2.729972 27,975 68 331 -2496
2019-03-20 16:16:18 GMT 44.201431 -2.740304 28,175 68 332 -2240
2019-03-20 16:16:06 GMT 44.194839 -2.763388 28,550 68 337 -1600
2019-03-20 16:16:03 GMT 44.193016 -2.769732 28,625 68 338 -1536
2019-03-20 16:15:57 GMT 44.188797 -2.784459 28,800 68 342 -1600
2019-03-20 16:15:53 GMT 44.187195 -2.789952 28,900 68 347 -2176
2019-03-20 16:15:44 GMT 44.182076 -2.807726 29,150 68 346 -1984
2019-03-20 16:15:41 GMT 44.180283 -2.813841 29,250 68 347 -2176
2019-03-20 16:15:35 GMT 44.176392 -2.827319 29,525 68 348 -2624
2019-03-20 16:15:30 GMT 44.173645 -2.836836 29,725 68 348 -2752
2019-03-20 16:15:24 GMT 44.170120 -2.849100 30,000 67 348 -2560
2019-03-20 16:15:21 GMT 44.167740 -2.857295 30,175 67 348 -2496
2019-03-20 16:15:13 GMT 44.163410 -2.872009 30,450 67 349 -2368
2019-03-20 16:15:09 GMT 44.160988 -2.880314 30,625 67 349 -2432
2019-03-20 16:15:02 GMT 44.156334 -2.896140 30,925 67 350 -2496
2019-03-20 16:14:59 GMT 44.154427 -2.902614 31,050 67 352 -2560
2019-03-20 16:14:53 GMT 44.149979 -2.917828 31,375 67 353 -2560
2019-03-20 16:14:47 GMT 44.147095 -2.927665 31,575 67 353 -2560
2019-03-20 16:14:42 GMT 44.144043 -2.938058 31,625 67 353 -2624
2019-03-20 16:14:37 GMT 44.140778 -2.949063 32,000 67 354 -2560
2019-03-20 16:14:29 GMT 44.136246 -2.964392 33,150 67 356 -2432
2019-03-20 16:14:25 GMT 44.133316 -2.974357 32,525 67 355 -2496
2019-03-20 16:14:17 GMT 44.128777 -2.989655 33,150 67 356 -2432
2019-03-20 16:14:13 GMT 44.126213 -2.998352 32,975 67 357 -2368
2019-03-20 16:14:07 GMT 44.121323 -3.014853 33,275 67 361 -2432
2019-03-20 16:14:03 GMT 44.119995 -3.019324 33,375 67 360 -2496
2019-03-20 16:13:58 GMT 44.116112 -3.032423 33,625 67 361 -2432
2019-03-20 16:13:52 GMT 44.113129 -3.042638 33,800 67 362 -2304
2019-03-20 16:13:48 GMT 44.110249 -3.052368 33,975 67 362 -2368
2019-03-20 16:13:42 GMT 44.106216 -3.066080 34,250 68 364 -2624
2019-03-20 16:13:39 GMT 44.104336 -3.072706 34,375 68 364 -2688
2019-03-20 16:13:29 GMT 44.097816 -3.095267 34,850 68 365 -2624
2019-03-20 16:13:21 GMT 44.093067 -3.111877 35,175 68 366 -2496
2019-03-20 16:13:18 GMT 44.090836 -3.119606 35,325 68 367 -2432
2019-03-20 16:13:12 GMT 44.087540 -3.131231 35,525 68 369 -1984
2019-03-20 16:13:07 GMT 44.084015 -3.143559 35,700 68 370 -1856
2019-03-20 16:13:02 GMT 44.081131 -3.153779 35,850 68 373 -1856
2019-03-20 16:12:58 GMT 44.079208 -3.160422 35,950 68 373 -2112
2019-03-20 16:12:55 GMT 44.077244 -3.167201 36,075 67 375 -2240
2019-03-20 16:12:51 GMT 44.073990 -3.178498 36,250 67 375 -2240
2019-03-20 16:12:45 GMT 44.070724 -3.189501 36,450 67 376 -1984
2019-03-20 16:12:41 GMT 44.067810 -3.199449 36,600 67 376 -1792
2019-03-20 16:12:35 GMT 44.063461 -3.214267 36,750 67 378 -1472
2019-03-20 16:12:30 GMT 44.060062 -3.225795 36,875 67 379 -1216
2019-03-20 16:12:24 GMT 44.056850 -3.236847 36,950 67 380 -832
2019-03-20 16:12:21 GMT 44.054199 -3.245871 37,000 67 381 -832
2019-03-20 16:12:15 GMT 44.050140 -3.259618 37,100 67 384 -896
2019-03-20 16:12:11 GMT 44.047260 -3.269479 37,150 68 384 -896
2019-03-20 16:12:07 GMT 44.045120 -3.276869 37,200 67 386 -896
2019-03-20 16:12:00 GMT 44.040619 -3.292321 37,300 67 388 -960
2019-03-20 16:11:56 GMT 44.037964 -3.301328 37,375 67 389 -960
2019-03-20 16:11:53 GMT 44.035583 -3.309440 37,425 67 391 -1024
2019-03-20 16:11:50 GMT 44.033390 -3.316694 37,475 67 391 -1024
2019-03-20 16:11:46 GMT 44.030823 -3.325408 37,550 67 391 -960
2019-03-20 16:11:43 GMT 44.028992 -3.331604 37,625 67 392 -1024
2019-03-20 16:11:39 GMT 44.026268 -3.340825 37,675 67 392 -1024
2019-03-20 16:11:33 GMT 44.021194 -3.358024 37,800 67 393 -1024
2019-03-20 16:11:29 GMT 44.019192 -3.364825 37,850 67 393 -1024
2019-03-20 16:11:25 GMT 44.016445 -3.374111 37,925 67 393 -768
2019-03-20 16:11:22 GMT 44.014343 -3.381234 37,950 67 393 -704
2019-03-20 16:11:18 GMT 44.011974 -3.389282 37,975 67 393 -512
2019-03-20 16:11:08 GMT 44.004684 -3.413874 38,000 67 393 -64
2019-03-20 16:10:58 GMT 43.997822 -3.437086 38,000 67 393 0
2019-03-20 16:10:47 GMT 43.990494 -3.461907 38,000 67 394 0
2019-03-20 16:10:35 GMT 43.982323 -3.489598 38,025 67 394 0
2019-03-20 16:10:25 GMT 43.975296 -3.513326 38,025 67 394 0
2019-03-20 16:10:15 GMT 43.967239 -3.540344 38,025 67 396 0
2019-03-20 16:10:12 GMT 43.966187 -3.543985 38,025 67 396 0
2019-03-20 16:10:06 GMT 43.961609 -3.559187 38,025 67 396 0
2019-03-20 16:09:53 GMT 43.952225 -3.590613 38,025 67 396 0
2019-03-20 16:09:40 GMT 43.940098 -3.631635 38,025 67 397 0
2019-03-20 16:09:31 GMT 43.937668 -3.639732 38,025 67 397 -64
2019-03-20 16:09:24 GMT 43.932816 -3.655956 38,025 67 397 -64
2019-03-20 16:09:19 GMT 43.929394 -3.667603 38,025 67 397 0
2019-03-20 16:09:15 GMT 43.925900 -3.679374 38,025 67 397 0
2019-03-20 16:09:11 GMT 43.922791 -3.689809 38,025 67 397 0
2019-03-20 16:09:04 GMT 43.918213 -3.705395 38,025 67 397 0
2019-03-20 16:08:59 GMT 43.915474 -3.714687 38,025 67 398 0
2019-03-20 16:08:53 GMT 43.911072 -3.729411 38,025 67 398 0
2019-03-20 16:08:44 GMT 43.904022 -3.753172 38,025 67 399 0
2019-03-20 16:08:37 GMT 43.899647 -3.767918 38,025 67 398 -64
2019-03-20 16:08:33 GMT 43.896759 -3.777597 38,025 67 398 0
2019-03-20 16:08:26 GMT 43.892010 -3.793291 38,025 67 398 64
2019-03-20 16:08:22 GMT 43.889359 -3.802054 38,025 67 398 64
2019-03-20 16:08:15 GMT 43.883911 -3.820103 38,025 67 398 0
2019-03-20 16:08:12 GMT 43.881729 -3.827266 38,025 67 398 0
2019-03-20 16:08:02 GMT 43.874554 -3.850839 38,025 67 398 64
2019-03-20 16:07:54 GMT 43.868958 -3.868976 38,000 66 397 0
2019-03-20 16:07:51 GMT 43.866714 -3.876258 38,000 66 397 0
2019-03-20 16:07:41 GMT 43.859390 -3.900083 38,000 67 398 64
2019-03-20 16:07:31 GMT 43.852486 -3.922969 38,000 67 397 64
2019-03-20 16:07:21 GMT 43.845318 -3.947689 38,000 68 397 64
2019-03-20 16:07:10 GMT 43.838333 -3.972604 38,000 68 398 0
2019-03-20 16:07:00 GMT 43.831558 -3.996596 38,000 68 397 -64
2019-03-20 16:06:50 GMT 43.824696 -4.021388 38,000 70 397 0
2019-03-20 16:06:46 GMT 43.822788 -4.028582 38,000 70 397 0
2019-03-20 16:06:38 GMT 43.818363 -4.046892 38,000 72 398 64
2019-03-20 16:06:28 GMT 43.812450 -4.072593 38,000 72 398 0
2019-03-20 16:06:23 GMT 43.809631 -4.085126 38,000 72 398 64
2019-03-20 16:06:18 GMT 43.806793 -4.097453 38,000 72 399 0
2019-03-20 16:06:15 GMT 43.804726 -4.106598 38,000 72 399 0
2019-03-20 16:06:06 GMT 43.800476 -4.125175 38,000 72 398 0
2019-03-20 16:05:58 GMT 43.795624 -4.146509 38,000 72 398 0
2019-03-20 16:05:47 GMT 43.789444 -4.173399 38,000 72 397 0
2019-03-20 16:05:37 GMT 43.783684 -4.198412 38,000 72 397 0
2019-03-20 16:05:26 GMT 43.778183 -4.222710 38,000 72 397 0
2019-03-20 16:05:23 GMT 43.776718 -4.229034 38,000 72 397 0
2019-03-20 16:05:15 GMT 43.772369 -4.248068 38,000 72 397 0
2019-03-20 16:05:12 GMT 43.770355 -4.256755 38,000 72 397 0
2019-03-20 16:05:04 GMT 43.765854 -4.276494 38,000 72 397 0
2019-03-20 16:05:00 GMT 43.763664 -4.286107 38,000 72 397 0
2019-03-20 16:04:54 GMT 43.759781 -4.302936 38,000 72 397 0
2019-03-20 16:04:49 GMT 43.757523 -4.312919 38,000 72 397 0
2019-03-20 16:04:45 GMT 43.755379 -4.322401 38,000 72 397 0
2019-03-20 16:04:42 GMT 43.753796 -4.329398 38,000 72 397 0
2019-03-20 16:04:35 GMT 43.749390 -4.348925 38,000 72 397 0
2019-03-20 16:04:32 GMT 43.748245 -4.353971 38,000 72 398 0
2019-03-20 16:04:28 GMT 43.746117 -4.363600 38,000 72 398 0
2019-03-20 16:04:24 GMT 43.743622 -4.374603 38,000 72 398 -64
2019-03-20 16:04:14 GMT 43.738388 -4.397997 38,000 72 398 0
2019-03-20 16:04:07 GMT 43.734421 -4.415865 38,000 72 397 0
2019-03-20 16:04:02 GMT 43.731590 -4.428340 38,000 72 397 0
2019-03-20 16:03:53 GMT 43.727142 -4.448058 38,000 72 398 64
2019-03-20 16:03:42 GMT 43.721302 -4.473594 37,975 72 398 0
2019-03-20 16:03:33 GMT 43.715530 -4.498771 38,000 72 398 -64
2019-03-20 16:03:20 GMT 43.709061 -4.526942 38,000 72 398 0
2019-03-20 16:03:17 GMT 43.706726 -4.537098 38,000 72 398 64
2019-03-20 16:03:11 GMT 43.703796 -4.549937 38,000 72 398 0
2019-03-20 16:02:59 GMT 43.697376 -4.577571 38,000 72 398 -64
2019-03-20 16:02:51 GMT 43.692581 -4.598105 38,000 72 398 0
2019-03-20 16:02:45 GMT 43.689507 -4.611119 38,000 72 398 0
2019-03-20 16:02:40 GMT 43.686630 -4.623583 38,000 72 398 0
2019-03-20 16:02:31 GMT 43.680771 -4.648430 38,000 71 398 0
2019-03-20 16:02:24 GMT 43.677567 -4.661908 38,000 71 398 -64
2019-03-20 16:02:20 GMT 43.674911 -4.673022 38,000 71 398 0
2019-03-20 16:02:10 GMT 43.669144 -4.697422 38,000 72 399 0
2019-03-20 16:02:00 GMT 43.663441 -4.724121 38,000 75 399 0
2019-03-20 16:01:47 GMT 43.657883 -4.755739 38,000 77 401 0
2019-03-20 16:01:43 GMT 43.656548 -4.764143 38,000 77 401 0
2019-03-20 16:01:39 GMT 43.654964 -4.774083 38,000 77 401 0
2019-03-20 16:01:32 GMT 43.652206 -4.791444 38,000 77 401 0
2019-03-20 16:01:29 GMT 43.650650 -4.801217 38,000 77 401 0
2019-03-20 16:01:21 GMT 43.648216 -4.816524 38,000 77 401 0
2019-03-20 16:01:18 GMT 43.646713 -4.825872 38,000 77 401 0
2019-03-20 16:01:08 GMT 43.640533 -4.864458 38,000 77 401 64
2019-03-20 16:01:03 GMT 43.638302 -4.878453 38,000 77 402 0
2019-03-20 16:00:57 GMT 43.638302 -4.878453 38,000 77 402 0
2019-03-20 16:00:49 GMT 43.635181 -4.898137 38,000 77 403 0
2019-03-20 16:00:46 GMT 43.633987 -4.905523 38,000 77 402 0
2019-03-20 16:00:36 GMT 43.630051 -4.930306 38,000 77 403 0
2019-03-20 16:00:29 GMT 43.625702 -4.957900 38,000 77 403 0
2019-03-20 16:00:25 GMT 43.625702 -4.957900 38,000 77 403 0
2019-03-20 16:00:15 GMT 43.621868 -4.981777 37,975 77 403 0
2019-03-20 16:00:06 GMT 43.617630 -5.008327 37,975 77 403 64
2019-03-20 15:59:55 GMT 43.613396 -5.034681 37,975 77 403 64
2019-03-20 15:59:44 GMT 43.609344 -5.059989 37,975 77 404 -64
2019-03-20 15:59:35 GMT 43.605103 -5.086542 37,975 77 404 -64
2019-03-20 15:59:24 GMT 43.601074 -5.111645 37,975 77 404 0
2019-03-20 15:59:13 GMT 43.596863 -5.137961 37,975 77 404 -64
2019-03-20 15:59:03 GMT 43.592491 -5.165013 38,000 77 404 -64
2019-03-20 15:58:53 GMT 43.588577 -5.188932 38,000 77 404 -64
2019-03-20 15:58:42 GMT 43.584091 -5.216270 38,025 77 405 0
2019-03-20 15:58:33 GMT 43.579739 -5.242506 38,000 77 405 0
2019-03-20 15:58:21 GMT 43.575363 -5.268925 38,025 77 406 -64
2019-03-20 15:58:11 GMT 43.571045 -5.294963 38,025 77 406 -64
2019-03-20 15:57:56 GMT 43.564655 -5.333339 38,025 77 406 64
2019-03-20 15:57:17 GMT 43.548431 -5.431206 38,025 77 408 0
2019-03-20 15:57:13 GMT 43.546780 -5.440979 38,025 76 408 0
2019-03-20 15:57:10 GMT 43.545319 -5.449666 38,025 76 408 0
2019-03-20 15:56:58 GMT 43.540543 -5.478123 38,025 76 408 64
2019-03-20 15:56:38 GMT 43.532162 -5.528281 38,000 77 409 0
2019-03-20 15:56:17 GMT 43.522705 -5.584440 38,000 76 409 0
2019-03-20 15:55:59 GMT 43.515450 -5.627420 38,000 76 409 -64
2019-03-20 15:55:52 GMT 43.512177 -5.646781 38,000 76 409 -64
2019-03-20 15:55:45 GMT 43.508747 -5.667180 38,000 76 409 64
2019-03-20 15:50:53 GMT 43.381706 -6.406010 38,025 76 412 -64
2019-03-20 15:50:37 GMT 43.372440 -6.459569 38,025 76 411 0
2019-03-20 15:50:21 GMT 43.365601 -6.498988 38,025 76 411 0
2019-03-20 15:49:55 GMT 43.356079 -6.554175 38,025 76 411 -64
2019-03-20 15:49:47 GMT 43.353012 -6.571932 38,025 76 411 0
2019-03-20 15:49:41 GMT 43.350403 -6.587070 38,025 76 411 -64
2019-03-20 15:49:24 GMT 43.340878 -6.643459 38,050 76 410 -64
2019-03-20 15:49:21 GMT 43.339203 -6.656015 38,050 84 412 0
2019-03-20 15:49:06 GMT 43.337246 -6.677006 38,050 83 411 0
2019-03-20 15:48:31 GMT 43.334454 -6.767251 38,025 87 414 64
2019-03-20 15:48:26 GMT 43.334129 -6.779611 38,025 87 414 64
2019-03-20 15:48:12 GMT 43.333145 -6.817719 38,025 87 414 64
2019-03-20 15:48:06 GMT 43.332733 -6.833943 38,025 87 414 0
2019-03-20 15:47:56 GMT 43.332047 -6.858024 38,025 87 414 -64
2019-03-20 15:47:45 GMT 43.331287 -6.886727 38,025 87 413 64
2019-03-20 15:47:34 GMT 43.330490 -6.915574 38,025 87 413 128
2019-03-20 15:47:24 GMT 43.329712 -6.944573 38,000 87 413 0
2019-03-20 15:47:14 GMT 43.329006 -6.969517 38,000 87 413 0
2019-03-20 15:47:03 GMT 43.328217 -6.997702 38,000 87 412 0
2019-03-20 15:46:52 GMT 43.327377 -7.027196 38,000 87 412 128
2019-03-20 15:46:42 GMT 43.326679 -7.053026 37,950 87 412 192
2019-03-20 15:46:32 GMT 43.325981 -7.079054 37,950 87 412 0
2019-03-20 15:46:21 GMT 43.325237 -7.107500 37,950 87 412 0
2019-03-20 15:46:10 GMT 43.324493 -7.136387 37,950 87 412 0
2019-03-20 15:46:01 GMT 43.323853 -7.159892 37,950 87 413 0
2019-03-20 15:45:51 GMT 43.323074 -7.188061 37,950 87 413 0
2019-03-20 15:45:40 GMT 43.322296 -7.215271 37,950 87 413 -128
2019-03-20 15:45:30 GMT 43.321419 -7.243129 37,975 87 414 -128
2019-03-20 15:45:18 GMT 43.320465 -7.271544 38,000 87 415 -64
2019-03-20 15:45:08 GMT 43.320099 -7.298116 38,025 91 418 -64
2019-03-20 15:44:57 GMT 43.321014 -7.328839 38,025 92 419 -64
2019-03-20 15:44:44 GMT 43.322632 -7.376077 38,050 92 422 0
2019-03-20 15:44:36 GMT 43.322910 -7.383532 38,050 92 422 0
2019-03-20 15:44:25 GMT 43.323853 -7.411747 38,050 92 423 0
2019-03-20 15:44:12 GMT 43.325424 -7.460698 38,025 92 424 64
2019-03-20 15:44:05 GMT 43.325592 -7.467318 38,025 92 425 0
2019-03-20 15:43:54 GMT 43.326508 -7.495869 38,025 92 427 64
2019-03-20 15:43:44 GMT 43.327332 -7.523974 38,025 92 428 0
2019-03-20 15:43:40 GMT 43.327698 -7.537004 38,025 92 428 -64
2019-03-20 15:43:33 GMT 43.328201 -7.553803 38,025 92 429 -64
2019-03-20 15:43:29 GMT 43.328495 -7.564218 38,025 92 429 -64
2019-03-20 15:43:23 GMT 43.328934 -7.580694 38,025 92 429 -64
2019-03-20 15:43:18 GMT 43.329334 -7.595476 38,025 92 429 -64
2019-03-20 15:43:12 GMT 43.329659 -7.608752 38,050 91 429 -64
2019-03-20 15:43:09 GMT 43.329937 -7.620196 38,050 91 429 0
2019-03-20 15:43:02 GMT 43.330124 -7.636903 38,025 88 428 128
2019-03-20 15:42:56 GMT 43.329800 -7.653024 38,025 84 426 128
2019-03-20 15:42:52 GMT 43.328888 -7.666860 38,025 80 425 128
2019-03-20 15:42:47 GMT 43.327564 -7.679247 38,025 78 424 64
2019-03-20 15:42:40 GMT 43.325043 -7.695348 38,000 74 422 128
2019-03-20 15:42:37 GMT 43.322910 -7.705797 38,000 71 422 64
2019-03-20 15:42:30 GMT 43.318954 -7.721600 38,000 67 420 0
2019-03-20 15:42:27 GMT 43.315323 -7.733198 38,000 64 420 0
2019-03-20 15:42:20 GMT 43.309937 -7.747980 38,000 60 418 0
2019-03-20 15:42:08 GMT 43.298656 -7.772042 38,000 52 415 -64
2019-03-20 15:41:58 GMT 43.277573 -7.803934 38,000 40 412 -64
2019-03-20 15:41:47 GMT 43.271423 -7.811083 38,025 37 411 -64
2019-03-20 15:41:41 GMT 43.259583 -7.823032 38,025 35 411 -64
2019-03-20 15:41:37 GMT 43.254524 -7.827432 38,025 30 411 -64
2019-03-20 15:41:25 GMT 43.235157 -7.841099 38,025 23 410 0
2019-03-20 15:41:11 GMT 43.201904 -7.859824 38,050 22 410 -64
2019-03-20 15:41:04 GMT 43.198563 -7.861676 38,050 22 410 -64
2019-03-20 15:40:55 GMT 43.162720 -7.881796 38,050 22 411 64
2019-03-20 15:40:44 GMT 43.162720 -7.881796 38,050 22 411 64
2019-03-20 15:40:34 GMT 43.143494 -7.892591 38,050 22 412 -128
2019-03-20 15:40:24 GMT 43.116962 -7.907344 38,050 22 411 64
2019-03-20 15:40:12 GMT 43.096710 -7.918658 38,050 22 411 128
2019-03-20 15:40:03 GMT 43.089569 -7.922676 38,025 22 411 64
2019-03-20 15:40:00 GMT 43.083351 -7.926178 38,025 22 411 64
2019-03-20 15:39:49 GMT 43.055279 -7.941742 38,025 22 412 64
2019-03-20 15:39:41 GMT 43.051529 -7.943882 38,000 22 409 0
2019-03-20 15:39:30 GMT 43.033958 -7.953578 38,000 22 410 64
2019-03-20 15:39:21 GMT 43.015293 -7.963845 37,975 22 411 64
2019-03-20 15:39:09 GMT 42.978607 -7.984183 37,975 22 409 0
2019-03-20 15:39:00 GMT 42.978607 -7.984183 37,975 22 409 0
2019-03-20 15:38:51 GMT 42.964458 -7.992031 37,975 22 408 0
2019-03-20 15:38:48 GMT 42.959896 -7.994581 37,975 22 408 0
2019-03-20 15:38:41 GMT 42.946884 -8.001752 37,975 22 407 0
2019-03-20 15:38:38 GMT 42.942249 -8.004325 37,975 22 406 -64
2019-03-20 15:38:35 GMT 42.937038 -8.007202 37,975 22 406 -64
2019-03-20 15:38:31 GMT 42.926189 -8.013218 37,975 22 407 -64
2019-03-20 15:38:27 GMT 42.922375 -8.015311 37,975 22 407 -64
2019-03-20 15:38:20 GMT 42.910950 -8.021616 37,975 22 406 -64
2019-03-20 15:38:16 GMT 42.896912 -8.029371 37,975 22 406 64
2019-03-20 15:38:07 GMT 42.885498 -8.035669 37,975 22 406 0
2019-03-20 15:38:04 GMT 42.882805 -8.037153 37,975 22 407 0
2019-03-20 15:37:57 GMT 42.870094 -8.044216 37,975 22 406 -64
2019-03-20 15:37:54 GMT 42.864697 -8.047158 38,000 22 405 0
2019-03-20 15:37:48 GMT 42.853756 -8.053240 38,000 22 405 64
2019-03-20 15:37:43 GMT 42.846958 -8.056968 37,975 22 405 128
2019-03-20 15:37:33 GMT 42.828140 -8.067414 37,975 22 405 0
2019-03-20 15:37:21 GMT 42.798359 -8.083830 37,975 22 405 0
2019-03-20 15:37:13 GMT 42.793518 -8.086512 37,975 22 405 -64
2019-03-20 15:37:10 GMT 42.788860 -8.089131 37,975 22 405 0
2019-03-20 15:37:04 GMT 42.776012 -8.096221 37,975 22 405 0
2019-03-20 15:37:01 GMT 42.773346 -8.097673 37,975 22 405 0
2019-03-20 15:36:53 GMT 42.758648 -8.105802 37,975 22 405 -64
2019-03-20 15:36:49 GMT 42.752701 -8.109096 38,000 22 405 -64
2019-03-20 15:36:42 GMT 42.740448 -8.115767 38,000 22 405 0
2019-03-20 15:36:39 GMT 42.735233 -8.118641 38,000 22 404 0
2019-03-20 15:36:32 GMT 42.722855 -8.125451 38,000 22 404 0
2019-03-20 15:36:28 GMT 42.716705 -8.128861 38,000 22 405 0
2019-03-20 15:36:25 GMT 42.709072 -8.133077 38,000 22 405 0
2019-03-20 15:36:22 GMT 42.704086 -8.135813 38,000 22 405 -64
2019-03-20 15:36:18 GMT 42.698730 -8.138747 38,000 22 405 -64
2019-03-20 15:36:13 GMT 42.689613 -8.143807 38,000 22 405 -64
2019-03-20 15:36:08 GMT 42.680767 -8.148662 38,000 22 405 -64
2019-03-20 15:36:04 GMT 42.672363 -8.153354 38,025 22 405 -64
2019-03-20 15:36:01 GMT 42.667221 -8.156135 38,025 22 405 0
2019-03-20 15:35:57 GMT 42.660843 -8.159712 38,025 22 405 64
2019-03-20 15:35:53 GMT 42.654831 -8.162967 38,000 22 405 64
2019-03-20 15:35:49 GMT 42.648285 -8.166650 38,000 22 405 64
2019-03-20 15:35:45 GMT 42.642014 -8.170083 38,000 22 405 0
2019-03-20 15:35:42 GMT 42.636730 -8.172998 38,000 22 405 0
2019-03-20 15:35:39 GMT 42.631840 -8.175680 38,000 22 405 64
2019-03-20 15:35:35 GMT 42.623428 -8.180320 38,000 22 405 64
2019-03-20 15:35:31 GMT 42.616386 -8.184176 38,000 22 405 128
2019-03-20 15:35:28 GMT 42.612671 -8.186250 38,000 22 405 128
2019-03-20 15:35:22 GMT 42.601685 -8.192243 37,975 22 405 128
2019-03-20 15:35:19 GMT 42.595345 -8.195737 37,975 22 405 128
2019-03-20 15:35:11 GMT 42.580727 -8.203785 37,975 22 406 64
2019-03-20 15:35:08 GMT 42.576645 -8.206038 37,950 21 407 64
2019-03-20 15:35:01 GMT 42.562572 -8.213686 37,950 21 407 0
2019-03-20 15:34:58 GMT 42.557495 -8.216432 37,950 21 407 -64
2019-03-20 15:34:52 GMT 42.546837 -8.222181 37,950 21 407 -64
2019-03-20 15:34:47 GMT 42.538834 -8.226450 37,975 21 407 -128
2019-03-20 15:34:39 GMT 42.526062 -8.233317 37,975 21 407 -128
2019-03-20 15:34:35 GMT 42.519791 -8.236687 38,000 21 406 -64
2019-03-20 15:34:29 GMT 42.507267 -8.243387 38,000 21 407 -64
2019-03-20 15:34:26 GMT 42.502007 -8.246261 38,000 21 407 -64
2019-03-20 15:34:18 GMT 42.489532 -8.252980 38,000 21 407 0
2019-03-20 15:34:15 GMT 42.483582 -8.256226 38,000 21 407 0
2019-03-20 15:34:08 GMT 42.471470 -8.262805 38,000 21 407 -64
2019-03-20 15:34:03 GMT 42.464401 -8.266650 38,025 21 407 -64
2019-03-20 15:33:56 GMT 42.451813 -8.273454 38,025 21 407 -64
2019-03-20 15:33:53 GMT 42.446732 -8.276201 38,025 22 410 -64
2019-03-20 15:33:47 GMT 42.434227 -8.282989 38,025 21 407 0
2019-03-20 15:33:44 GMT 42.427570 -8.286566 38,025 21 407 0
2019-03-20 15:33:35 GMT 42.415237 -8.293304 38,025 21 408 0
2019-03-20 15:33:31 GMT 42.408417 -8.296987 38,025 21 408 0
2019-03-20 15:33:23 GMT 42.392120 -8.305851 38,025 21 409 0
2019-03-20 15:33:16 GMT 42.379063 -8.312946 38,025 22 410 -64
2019-03-20 15:33:12 GMT 42.373535 -8.315964 38,025 22 410 128
2019-03-20 15:33:04 GMT 42.359665 -8.323517 38,025 22 410 64
2019-03-20 15:33:00 GMT 42.352715 -8.327317 38,025 22 410 128
2019-03-20 15:32:53 GMT 42.340485 -8.334004 38,025 22 410 128
2019-03-20 15:32:44 GMT 42.323711 -8.343158 38,000 21 411 0
2019-03-20 15:32:41 GMT 42.304550 -8.353542 38,000 21 412 -128
2019-03-20 15:32:34 GMT 42.304550 -8.353542 38,000 21 412 -64
2019-03-20 15:32:31 GMT 42.299240 -8.356413 38,000 21 412 -64
2019-03-20 15:32:28 GMT 42.296478 -8.357849 38,000 21 412 -64
2019-03-20 15:32:22 GMT 42.285919 -8.363530 38,000 21 412 0
2019-03-20 15:32:19 GMT 42.279675 -8.366919 38,000 21 412 0
2019-03-20 15:32:12 GMT 42.267803 -8.373307 38,000 21 412 64
2019-03-20 15:32:09 GMT 42.262390 -8.376201 38,025 22 412 -64
2019-03-20 15:32:02 GMT 42.249435 -8.383193 38,000 21 413 -64
2019-03-20 15:31:59 GMT 42.244759 -8.385698 38,000 21 413 -64
2019-03-20 15:31:52 GMT 42.232086 -8.392556 38,025 22 413 -64
2019-03-20 15:31:49 GMT 42.225811 -8.395982 38,025 22 413 -64
2019-03-20 15:31:42 GMT 42.213757 -8.402561 38,025 22 412 64
2019-03-20 15:31:38 GMT 42.208054 -8.405727 38,025 22 413 64
2019-03-20 15:31:31 GMT 42.189651 -8.415777 38,000 22 413 64
2019-03-20 15:31:28 GMT 42.189651 -8.415777 38,000 22 413 64
2019-03-20 15:31:20 GMT 42.176094 -8.423192 37,975 22 414 128
2019-03-20 15:31:16 GMT 42.168972 -8.427025 37,975 21 414 128
2019-03-20 15:31:06 GMT 42.150352 -8.437181 37,950 21 414 0
2019-03-20 15:30:57 GMT 42.131744 -8.447175 37,950 21 415 0
2019-03-20 15:30:54 GMT 42.128983 -8.448678 37,950 21 414 64
2019-03-20 15:30:47 GMT 42.113937 -8.456788 37,950 21 414 64
2019-03-20 15:30:44 GMT 42.109497 -8.459161 37,950 21 414 64
2019-03-20 15:30:41 GMT 42.101566 -8.463369 37,950 21 415 64
2019-03-20 15:30:35 GMT 42.093559 -8.467649 37,950 21 414 0
2019-03-20 15:30:28 GMT 42.075989 -8.477013 37,950 21 414 -64
2019-03-20 15:30:24 GMT 42.073334 -8.478449 37,950 21 414 0
2019-03-20 15:30:19 GMT 42.065907 -8.482340 37,975 21 414 -64
2019-03-20 15:30:12 GMT 42.054173 -8.488663 37,950 21 414 0
2019-03-20 15:30:07 GMT 42.045364 -8.493368 37,950 21 414 0
2019-03-20 15:30:04 GMT 42.038956 -8.496801 37,975 21 414 -64
2019-03-20 15:30:00 GMT 42.026939 -8.503162 37,975 21 414 -128
2019-03-20 15:29:52 GMT 42.018494 -8.507725 38,000 21 414 -192
2019-03-20 15:29:41 GMT 41.990120 -8.522900 38,025 21 414 -128
2019-03-20 15:29:31 GMT 41.982483 -8.527051 38,025 21 414 -64
2019-03-20 15:29:23 GMT 41.967133 -8.535316 38,025 21 414 64
2019-03-20 15:29:15 GMT 41.954544 -8.542182 38,000 21 414 0
2019-03-20 15:29:11 GMT 41.946079 -8.546661 38,000 21 415 0
2019-03-20 15:29:05 GMT 41.926849 -8.556851 38,000 21 416 -192
2019-03-20 15:29:00 GMT 41.926849 -8.556851 38,025 21 416 -192
2019-03-20 15:28:55 GMT 41.917263 -8.561927 38,025 21 415 -64
2019-03-20 15:28:49 GMT 41.900345 -8.570834 38,050 21 416 0
2019-03-20 15:28:44 GMT 41.897713 -8.572210 38,025 21 417 0
2019-03-20 15:28:40 GMT 41.890030 -8.576234 38,050 22 417 -64
2019-03-20 15:28:34 GMT 41.879242 -8.582195 38,050 23 416 -64
2019-03-20 15:28:29 GMT 41.871140 -8.586939 38,050 24 417 0
2019-03-20 15:28:23 GMT 41.861633 -8.592842 38,050 25 416 64
2019-03-20 15:28:19 GMT 41.853161 -8.598399 38,050 26 416 192
2019-03-20 15:28:07 GMT 41.827194 -8.617027 38,000 29 418 128
2019-03-20 15:28:01 GMT 41.821461 -8.621521 38,000 30 419 0
2019-03-20 15:27:57 GMT 41.815456 -8.626312 38,000 31 419 -64
2019-03-20 15:27:52 GMT 41.807961 -8.632380 38,000 31 420 -128
2019-03-20 15:27:49 GMT 41.803165 -8.636276 38,000 31 420 -192
2019-03-20 15:27:46 GMT 41.798183 -8.640364 38,025 31 419 -192
2019-03-20 15:27:42 GMT 41.789841 -8.647177 38,025 31 419 -128
2019-03-20 15:27:39 GMT 41.779469 -8.655630 38,025 31 419 -64
2019-03-20 15:27:34 GMT 41.779469 -8.655630 38,025 31 418 0
2019-03-20 15:27:30 GMT 41.770660 -8.662845 38,025 31 419 64
2019-03-20 15:27:27 GMT 41.767502 -8.665404 38,025 31 419 64
2019-03-20 15:27:24 GMT 41.762291 -8.669682 38,025 31 419 64
2019-03-20 15:27:19 GMT 41.753952 -8.676453 38,025 31 419 0
2019-03-20 15:27:14 GMT 41.745255 -8.683543 38,025 31 420 64
2019-03-20 15:27:10 GMT 41.739109 -8.688525 38,025 31 420 0
2019-03-20 15:27:06 GMT 41.733475 -8.693060 38,025 31 419 0
2019-03-20 15:27:03 GMT 41.727219 -8.698113 38,025 31 420 0
2019-03-20 15:27:00 GMT 41.722092 -8.702233 38,025 31 420 0
2019-03-20 15:26:56 GMT 41.715366 -8.707687 38,025 31 420 -64
2019-03-20 15:26:53 GMT 41.710201 -8.711839 38,025 31 420 0
2019-03-20 15:26:50 GMT 41.703869 -8.716949 38,025 31 420 -64
2019-03-20 15:26:46 GMT 41.698750 -8.721164 38,025 31 420 0
2019-03-20 15:26:41 GMT 41.691833 -8.726765 38,025 31 420 0
2019-03-20 15:26:38 GMT 41.685760 -8.731640 38,025 31 420 64
2019-03-20 15:26:35 GMT 41.681534 -8.735067 38,025 31 420 64
2019-03-20 15:26:32 GMT 41.674438 -8.740872 38,000 31 420 64
2019-03-20 15:26:28 GMT 41.667698 -8.746331 38,000 31 420 64
2019-03-20 15:26:24 GMT 41.663452 -8.749799 38,000 31 420 64
2019-03-20 15:26:20 GMT 41.653336 -8.757976 38,000 31 420 64
2019-03-20 15:26:17 GMT 41.645874 -8.764031 38,000 31 420 64
2019-03-20 15:26:14 GMT 41.645874 -8.764031 38,000 31 420 128
2019-03-20 15:26:07 GMT 41.628616 -8.778014 37,975 31 420 64
2019-03-20 15:26:03 GMT 41.628616 -8.778014 37,975 31 420 0
2019-03-20 15:25:59 GMT 41.620728 -8.784400 37,975 31 420 -64
2019-03-20 15:25:56 GMT 41.615662 -8.788501 37,975 31 420 0
2019-03-20 15:25:52 GMT 41.609985 -8.793058 38,000 31 420 0
2019-03-20 15:25:48 GMT 41.598289 -8.802540 38,000 31 419 0
2019-03-20 15:25:42 GMT 41.593552 -8.806353 38,000 31 419 0
2019-03-20 15:25:38 GMT 41.584370 -8.813782 38,000 31 419 64
2019-03-20 15:25:35 GMT 41.576874 -8.819786 37,975 31 418 64
2019-03-20 15:25:25 GMT 41.563095 -8.830836 37,975 31 419 64
2019-03-20 15:25:22 GMT 41.559357 -8.833819 37,975 31 419 64
2019-03-20 15:25:18 GMT 41.548233 -8.842746 37,975 31 420 0
2019-03-20 15:25:15 GMT 41.546661 -8.844058 37,975 31 420 0
2019-03-20 15:25:10 GMT 41.540844 -8.848721 37,975 31 420 -64
2019-03-20 15:25:04 GMT 41.529327 -8.858039 37,975 31 420 -64
2019-03-20 15:25:00 GMT 41.524338 -8.862034 38,000 31 420 -128
2019-03-20 15:24:53 GMT 41.511566 -8.872396 38,000 31 420 -64
2019-03-20 15:24:50 GMT 41.506577 -8.876391 38,000 31 420 -64
2019-03-20 15:24:43 GMT 41.494385 -8.886215 38,000 31 419 -64
2019-03-20 15:24:37 GMT 41.478790 -8.898734 38,000 31 418 64
2019-03-20 15:24:32 GMT 41.476181 -8.900842 38,000 31 418 64
2019-03-20 15:24:29 GMT 41.471851 -8.904291 38,000 31 418 64
2019-03-20 15:24:22 GMT 41.459473 -8.914219 38,000 31 419 64
2019-03-20 15:24:18 GMT 41.454582 -8.918152 38,000 31 419 0
2019-03-20 15:24:07 GMT 41.427933 -8.939500 38,000 31 419 0
2019-03-20 15:24:01 GMT 41.423206 -8.943318 38,000 31 419 0
2019-03-20 15:23:57 GMT 41.418320 -8.947241 38,000 31 419 64
2019-03-20 15:23:52 GMT 41.410492 -8.953483 38,000 31 419 64
2019-03-20 15:23:49 GMT 41.406261 -8.956923 38,000 31 419 64
2019-03-20 15:23:46 GMT 41.401199 -8.960974 38,000 31 419 0
2019-03-20 15:23:39 GMT 41.389503 -8.970337 38,000 31 419 0
2019-03-20 15:23:36 GMT 41.383438 -8.975220 38,000 31 420 0
2019-03-20 15:23:31 GMT 41.374046 -8.982759 38,000 31 420 -64
2019-03-20 15:23:26 GMT 41.365494 -8.989624 38,000 31 420 0
2019-03-20 15:23:20 GMT 41.356915 -8.996492 38,000 31 420 0
2019-03-20 15:23:17 GMT 41.348373 -9.003296 38,000 30 419 0
2019-03-20 15:23:10 GMT 41.340435 -9.009601 38,000 30 419 0
2019-03-20 15:23:06 GMT 41.330147 -9.017840 38,000 30 419 0
2019-03-20 15:22:58 GMT 41.320511 -9.025518 38,000 30 419 0
2019-03-20 15:22:54 GMT 41.314365 -9.030450 38,000 30 419 0
2019-03-20 15:22:48 GMT 41.304031 -9.038689 38,000 30 419 -64
2019-03-20 15:22:43 GMT 41.296600 -9.044556 38,025 30 419 -64
2019-03-20 15:22:38 GMT 41.286438 -9.052673 38,025 30 420 -64
2019-03-20 15:22:33 GMT 41.278522 -9.058977 38,025 30 420 -64
2019-03-20 15:22:27 GMT 41.268185 -9.067216 38,025 30 420 -64
2019-03-20 15:22:22 GMT 41.261810 -9.072266 38,025 30 420 0
2019-03-20 15:22:18 GMT 41.252609 -9.079590 38,025 30 420 64
2019-03-20 15:22:15 GMT 41.248680 -9.082697 38,025 31 421 0
2019-03-20 15:22:12 GMT 41.244278 -9.086182 38,025 31 421 0
2019-03-20 15:22:09 GMT 41.238533 -9.090750 38,025 31 421 0
2019-03-20 15:22:06 GMT 41.227615 -9.099487 38,025 31 421 0
2019-03-20 15:22:03 GMT 41.227615 -9.099487 38,025 31 421 0
2019-03-20 15:21:59 GMT 41.216125 -9.108643 38,025 31 421 0
2019-03-20 15:21:55 GMT 41.210369 -9.113284 38,025 31 421 0
2019-03-20 15:21:52 GMT 41.210369 -9.113284 38,025 31 421 0
2019-03-20 15:21:48 GMT 41.203667 -9.118590 38,025 31 421 0
2019-03-20 15:21:45 GMT 41.192596 -9.127441 38,025 31 421 64
2019-03-20 15:21:41 GMT 41.186813 -9.132011 38,025 31 421 64
2019-03-20 15:21:38 GMT 41.186813 -9.132011 38,025 31 421 64
2019-03-20 15:21:34 GMT 41.181644 -9.136131 38,025 31 421 64
2019-03-20 15:21:31 GMT 41.175751 -9.140808 38,025 31 421 64
2019-03-20 15:21:27 GMT 41.169636 -9.145681 38,025 30 422 0
2019-03-20 15:21:20 GMT 41.150734 -9.160663 38,025 31 421 0
2019-03-20 15:21:13 GMT 41.144917 -9.165344 38,025 31 421 64
2019-03-20 15:21:09 GMT 41.139496 -9.169678 38,025 31 421 64
2019-03-20 15:21:06 GMT 41.133743 -9.174208 38,000 31 421 64
2019-03-20 15:21:03 GMT 41.126450 -9.179993 38,000 31 421 64
2019-03-20 15:20:58 GMT 41.119446 -9.185547 38,000 31 421 64
2019-03-20 15:20:52 GMT 41.104790 -9.197180 38,000 30 422 64
2019-03-20 15:20:48 GMT 41.102051 -9.199341 38,000 30 422 64
2019-03-20 15:20:42 GMT 41.090591 -9.208416 38,000 30 422 0
2019-03-20 15:20:38 GMT 41.087494 -9.210876 37,975 30 422 0
2019-03-20 15:20:35 GMT 41.081451 -9.215637 37,975 30 422 0
2019-03-20 15:20:30 GMT 41.074669 -9.220963 37,975 30 422 -64
2019-03-20 15:20:25 GMT 41.064987 -9.228703 38,000 30 422 -64
2019-03-20 15:20:21 GMT 41.057117 -9.234883 38,000 31 421 0
2019-03-20 15:20:15 GMT 41.047436 -9.242561 38,000 31 421 0
2019-03-20 15:20:10 GMT 41.039940 -9.248553 38,000 30 420 0
2019-03-20 15:20:06 GMT 41.028992 -9.257202 38,000 30 420 0
2019-03-20 15:19:59 GMT 41.020061 -9.264221 38,000 30 420 128
2019-03-20 15:19:54 GMT 41.013222 -9.269652 38,000 30 420 128
2019-03-20 15:19:48 GMT 41.003212 -9.277580 37,975 30 420 64
2019-03-20 15:19:45 GMT 40.998459 -9.281311 37,975 30 420 0
2019-03-20 15:19:42 GMT 40.994225 -9.284696 38,000 30 420 0
2019-03-20 15:19:38 GMT 40.986687 -9.290626 38,000 30 420 0
2019-03-20 15:19:35 GMT 40.981518 -9.294683 37,975 31 420 0
2019-03-20 15:19:32 GMT 40.976807 -9.298462 37,975 30 420 -64
2019-03-20 15:19:28 GMT 40.968857 -9.304733 37,975 30 419 64
2019-03-20 15:19:25 GMT 40.963875 -9.308728 37,975 30 420 64
2019-03-20 15:19:22 GMT 40.958893 -9.312661 37,975 30 420 64
2019-03-20 15:19:16 GMT 40.949799 -9.319824 37,975 30 420 0
2019-03-20 15:19:13 GMT 40.944946 -9.323669 37,950 30 420 0
2019-03-20 15:19:10 GMT 40.940598 -9.327087 37,975 30 420 -64
2019-03-20 15:19:07 GMT 40.929661 -9.335695 37,975 30 420 -64
2019-03-20 15:18:59 GMT 40.915367 -9.346993 37,975 30 420 0
2019-03-20 15:18:53 GMT 40.910526 -9.350801 37,975 30 420 -64
2019-03-20 15:18:50 GMT 40.905170 -9.355046 37,975 30 420 -64
2019-03-20 15:18:45 GMT 40.897934 -9.360779 37,975 30 420 -64
2019-03-20 15:18:42 GMT 40.893021 -9.364659 37,975 30 420 -64
2019-03-20 15:18:39 GMT 40.887856 -9.368716 37,975 30 420 0
2019-03-20 15:18:32 GMT 40.877335 -9.376956 37,975 30 419 0
2019-03-20 15:18:28 GMT 40.869980 -9.382636 38,000 30 420 0
2019-03-20 15:18:25 GMT 40.863190 -9.387939 38,000 30 420 0
2019-03-20 15:18:22 GMT 40.858841 -9.391296 38,000 30 420 -64
2019-03-20 15:18:14 GMT 40.846378 -9.400988 38,000 30 420 0
2019-03-20 15:18:11 GMT 40.841446 -9.404846 38,000 30 420 -64
2019-03-20 15:18:04 GMT 40.824051 -9.418396 38,000 30 421 0
2019-03-20 15:18:00 GMT 40.799915 -9.437318 38,000 30 420 -64
2019-03-20 15:17:50 GMT 40.799915 -9.437318 38,000 30 420 -64
2019-03-20 15:17:44 GMT 40.796494 -9.440002 38,000 31 421 -64
2019-03-20 15:17:41 GMT 40.790680 -9.444641 38,000 30 420 -64
2019-03-20 15:17:34 GMT 40.779327 -9.453613 38,025 30 421 0
2019-03-20 15:17:30 GMT 40.773285 -9.458313 38,025 30 421 0
2019-03-20 15:17:23 GMT 40.760925 -9.468018 38,025 30 421 0
2019-03-20 15:17:19 GMT 40.755569 -9.472168 38,025 30 421 0
2019-03-20 15:17:13 GMT 40.743587 -9.481576 38,025 30 422 0
2019-03-20 15:17:08 GMT 40.729485 -9.492624 38,025 30 422 -64
2019-03-20 15:17:02 GMT 40.721104 -9.499179 38,025 30 422 0
2019-03-20 15:16:59 GMT 40.721104 -9.499179 38,025 30 422 0
2019-03-20 15:16:53 GMT 40.710537 -9.507481 38,025 30 423 0
2019-03-20 15:16:49 GMT 40.704025 -9.512512 38,025 30 422 0
2019-03-20 15:16:43 GMT 40.694012 -9.520278 38,025 30 422 64
2019-03-20 15:16:38 GMT 40.686218 -9.526367 38,025 30 422 0
2019-03-20 15:16:33 GMT 40.676506 -9.533886 38,025 30 424 64
2019-03-20 15:16:28 GMT 40.668686 -9.539978 38,025 30 424 0
2019-03-20 15:16:23 GMT 40.659142 -9.547369 38,025 30 424 0
2019-03-20 15:16:18 GMT 40.652161 -9.552795 38,000 30 424 64
2019-03-20 15:16:12 GMT 40.641781 -9.560914 38,000 30 423 0
2019-03-20 15:16:08 GMT 40.634811 -9.566345 38,000 30 423 0
2019-03-20 15:16:02 GMT 40.623322 -9.575317 38,000 30 424 64
2019-03-20 15:15:55 GMT 40.613571 -9.583008 38,000 30 424 64
2019-03-20 15:15:51 GMT 40.606155 -9.588806 37,975 30 423 128
2019-03-20 15:15:46 GMT 40.598488 -9.594810 37,975 30 424 128
2019-03-20 15:15:40 GMT 40.588524 -9.602550 37,975 30 424 64
2019-03-20 15:15:34 GMT 40.579010 -9.609985 37,950 30 425 64
2019-03-20 15:15:31 GMT 40.570862 -9.616333 37,950 30 425 -64
2019-03-20 15:15:25 GMT 40.563339 -9.622151 37,950 30 425 -64
2019-03-20 15:15:19 GMT 40.552864 -9.630266 37,975 30 424 -64
2019-03-20 15:15:14 GMT 40.544720 -9.636570 37,975 30 424 -64
2019-03-20 15:15:10 GMT 40.534897 -9.644186 37,975 30 424 -64
2019-03-20 15:15:03 GMT 40.526283 -9.650865 37,975 30 424 -64
2019-03-20 15:14:59 GMT 40.518185 -9.657170 38,000 30 424 0
2019-03-20 15:14:56 GMT 40.513046 -9.661133 38,000 30 424 0
2019-03-20 15:14:49 GMT 40.501007 -9.670471 38,000 30 425 -64
2019-03-20 15:14:43 GMT 40.492348 -9.677207 38,000 30 425 -64
2019-03-20 15:14:38 GMT 40.483177 -9.684323 38,000 30 425 -64
2019-03-20 15:14:33 GMT 40.474503 -9.691101 38,000 30 424 -64
2019-03-20 15:14:28 GMT 40.464787 -9.698618 38,000 30 424 0
2019-03-20 15:14:23 GMT 40.457108 -9.704651 38,000 30 425 64
2019-03-20 15:14:15 GMT 40.443054 -9.715515 38,000 30 425 0
2019-03-20 15:14:06 GMT 40.428497 -9.726868 38,000 30 426 -64
2019-03-20 15:14:01 GMT 40.421539 -9.732239 38,000 30 426 -64
2019-03-20 15:13:56 GMT 40.402725 -9.746826 38,000 30 426 -64
2019-03-20 15:13:51 GMT 40.402725 -9.746826 38,000 30 426 -64
2019-03-20 15:13:43 GMT 40.389885 -9.756796 38,025 30 426 0
2019-03-20 15:13:40 GMT 40.384735 -9.760803 38,025 30 426 -64
2019-03-20 15:13:35 GMT 40.375534 -9.767883 38,025 30 427 0
2019-03-20 15:13:32 GMT 40.372147 -9.770508 38,025 30 427 0
2019-03-20 15:13:29 GMT 40.366882 -9.774597 38,025 30 427 64
2019-03-20 15:13:23 GMT 40.355064 -9.783700 38,000 30 427 64
2019-03-20 15:13:18 GMT 40.347569 -9.789443 38,000 30 427 0
2019-03-20 15:13:12 GMT 40.337189 -9.797495 38,000 30 428 0
2019-03-20 15:13:07 GMT 40.330204 -9.802863 38,000 30 428 0
2019-03-20 15:13:01 GMT 40.319126 -9.811415 38,000 30 428 0
2019-03-20 15:12:57 GMT 40.312283 -9.816659 38,000 30 428 0
2019-03-20 15:12:52 GMT 40.301971 -9.824585 38,025 30 428 -64
2019-03-20 15:12:48 GMT 40.295197 -9.829767 38,025 30 428 -64
2019-03-20 15:12:41 GMT 40.284630 -9.837882 38,025 30 428 -64
2019-03-20 15:12:37 GMT 40.277786 -9.843126 38,025 30 428 0
2019-03-20 15:12:31 GMT 40.266850 -9.851490 38,025 30 428 0
2019-03-20 15:12:26 GMT 40.259121 -9.857358 38,025 30 428 0
2019-03-20 15:12:20 GMT 40.248779 -9.865295 38,025 30 428 0
2019-03-20 15:12:15 GMT 40.240498 -9.871653 38,025 30 428 0
2019-03-20 15:12:10 GMT 40.230835 -9.879089 38,025 30 428 -64
2019-03-20 15:12:04 GMT 40.222019 -9.885823 38,025 30 428 0
2019-03-20 15:11:59 GMT 40.213348 -9.892456 38,025 30 428 0
2019-03-20 15:11:54 GMT 40.202652 -9.900617 38,025 30 428 0
2019-03-20 15:11:50 GMT 40.196091 -9.905640 38,025 30 428 0
2019-03-20 15:11:42 GMT 40.184685 -9.914350 38,025 30 428 0
2019-03-20 15:11:39 GMT 40.178352 -9.919219 38,025 30 428 0
2019-03-20 15:11:34 GMT 40.160568 -9.932827 38,025 30 428 64
2019-03-20 15:11:29 GMT 40.160568 -9.932827 38,025 30 428 64
2019-03-20 15:11:18 GMT 40.136360 -9.951241 38,000 30 429 64
2019-03-20 15:11:13 GMT 40.133057 -9.953796 38,000 30 429 0
2019-03-20 15:11:08 GMT 40.124817 -9.960022 38,000 30 429 0
2019-03-20 15:11:02 GMT 40.115021 -9.967529 38,000 30 429 0
2019-03-20 15:10:58 GMT 40.107594 -9.973214 38,000 30 429 64
2019-03-20 15:10:51 GMT 40.089844 -9.986694 38,000 30 428 0
2019-03-20 15:10:48 GMT 40.089844 -9.986694 38,000 30 428 0
2019-03-20 15:10:36 GMT 40.064209 -10.006287 38,000 30 429 -64
2019-03-20 15:10:30 GMT 40.060856 -10.008857 38,000 30 429 -64
2019-03-20 15:10:27 GMT 40.053684 -10.014350 38,000 30 428 0
2019-03-20 15:10:20 GMT 40.042095 -10.023277 38,000 30 428 -64
2019-03-20 15:10:16 GMT 40.036560 -10.027527 38,000 30 428 -64
2019-03-20 15:10:09 GMT 40.024868 -10.036510 38,025 30 428 0
2019-03-20 15:10:04 GMT 40.017048 -10.042565 38,025 30 428 0
2019-03-20 15:09:59 GMT 39.992111 -10.061829 38,000 30 428 0
2019-03-20 15:09:54 GMT 39.992111 -10.061829 38,000 30 427 0
2019-03-20 15:09:48 GMT 39.988541 -10.064636 38,000 30 428 -64
2019-03-20 15:09:45 GMT 39.983231 -10.068665 38,000 30 428 -64
2019-03-20 15:09:38 GMT 39.969845 -10.078895 38,025 30 428 0
2019-03-20 15:09:34 GMT 39.965237 -10.082453 38,025 30 428 0
2019-03-20 15:09:26 GMT 39.951408 -10.093002 38,025 30 428 0
2019-03-20 15:09:12 GMT 39.920776 -10.116516 38,025 30 427 -64
2019-03-20 15:09:05 GMT 39.915657 -10.120422 38,050 30 427 0
2019-03-20 15:09:02 GMT 39.910629 -10.124260 38,050 30 427 -64
2019-03-20 15:08:55 GMT 39.896851 -10.134828 38,050 30 427 0
2019-03-20 15:08:52 GMT 39.894058 -10.136963 38,050 30 427 0
2019-03-20 15:08:44 GMT 39.877998 -10.149170 38,025 30 427 64
2019-03-20 15:08:30 GMT 39.848949 -10.171021 38,025 30 427 64
2019-03-20 15:08:22 GMT 39.841919 -10.176270 38,000 30 427 64
2019-03-20 15:08:12 GMT 39.825577 -10.188506 38,000 30 427 64
2019-03-20 15:08:02 GMT 39.800907 -10.207092 38,000 30 427 64
2019-03-20 15:07:53 GMT 39.791473 -10.214300 37,975 30 427 64
2019-03-20 15:07:48 GMT 39.777397 -10.224915 37,975 30 427 64
2019-03-20 15:07:41 GMT 39.772202 -10.228809 37,975 30 427 0
2019-03-20 15:07:32 GMT 39.755173 -10.241706 37,975 30 426 -64
2019-03-20 15:07:20 GMT 39.730053 -10.260620 37,975 30 424 64
2019-03-20 15:07:06 GMT 39.706127 -10.278748 37,975 30 425 0
2019-03-20 15:06:59 GMT 39.701054 -10.282654 37,975 30 425 0
2019-03-20 15:06:49 GMT 39.683411 -10.296021 37,975 30 424 -64
2019-03-20 15:06:38 GMT 39.658493 -10.315028 37,975 30 424 0
2019-03-20 15:06:29 GMT 39.649841 -10.321536 37,975 30 423 64
2019-03-20 15:06:19 GMT 39.633957 -10.333597 37,975 30 423 0
2019-03-20 15:06:16 GMT 39.628830 -10.337359 37,975 29 424 -64
2019-03-20 15:06:09 GMT 39.614838 -10.347778 37,975 29 424 0
2019-03-20 15:06:06 GMT 39.610928 -10.350708 37,975 29 424 0
2019-03-20 15:05:59 GMT 39.598824 -10.359619 37,975 29 424 0
2019-03-20 15:05:56 GMT 39.592865 -10.364075 37,975 29 424 0
2019-03-20 15:05:48 GMT 39.580109 -10.373535 37,975 29 424 0
2019-03-20 15:05:45 GMT 39.575089 -10.377244 37,975 30 423 0
2019-03-20 15:05:37 GMT 39.561909 -10.387085 37,975 30 423 0
2019-03-20 15:05:27 GMT 39.544373 -10.400172 37,975 30 423 0
2019-03-20 15:05:23 GMT 39.538055 -10.404889 37,975 30 423 0
2019-03-20 15:05:17 GMT 39.519825 -10.418518 37,975 30 424 -64
2019-03-20 15:05:12 GMT 39.519825 -10.418518 37,975 30 424 -64
2019-03-20 15:05:06 GMT 39.508793 -10.426819 38,000 30 424 -64
2019-03-20 15:05:02 GMT 39.502693 -10.431396 38,000 30 424 -64
2019-03-20 15:04:56 GMT 39.491730 -10.439639 38,000 30 424 -64
2019-03-20 15:04:52 GMT 39.485050 -10.444702 38,000 30 425 -64
2019-03-20 15:04:46 GMT 39.474018 -10.453003 38,000 30 425 -64
2019-03-20 15:04:42 GMT 39.466461 -10.458746 38,000 30 425 -64
2019-03-20 15:04:35 GMT 39.456512 -10.466248 38,000 30 425 -64
2019-03-20 15:04:30 GMT 39.448425 -10.472359 38,025 30 426 -64
2019-03-20 15:04:25 GMT 39.438683 -10.479675 38,000 30 425 0
2019-03-20 15:04:20 GMT 39.430252 -10.486032 38,000 29 426 0
2019-03-20 15:04:14 GMT 39.421188 -10.492779 38,000 29 426 64
2019-03-20 15:04:11 GMT 39.414104 -10.498047 38,000 29 426 64
2019-03-20 15:04:04 GMT 39.396561 -10.511050 38,000 30 427 64
2019-03-20 15:03:59 GMT 39.393574 -10.513306 38,000 30 427 64
2019-03-20 15:03:54 GMT 39.385845 -10.519043 38,000 30 427 0
2019-03-20 15:03:50 GMT 39.379517 -10.523743 38,000 30 428 64
2019-03-20 15:03:47 GMT 39.373810 -10.528067 38,000 30 428 0
2019-03-20 15:03:43 GMT 39.367878 -10.532532 38,000 30 428 0
2019-03-20 15:03:39 GMT 39.360809 -10.537859 38,000 30 428 -64
2019-03-20 15:03:33 GMT 39.350094 -10.545959 38,000 30 428 -64
2019-03-20 15:03:29 GMT 39.341629 -10.552308 38,000 30 428 0
2019-03-20 15:03:23 GMT 39.332886 -10.558936 38,025 30 429 -64
2019-03-20 15:03:17 GMT 39.315033 -10.572251 38,025 30 429 -64
2019-03-20 15:03:12 GMT 39.315033 -10.572251 38,025 30 429 -64
2019-03-20 15:03:07 GMT 39.305557 -10.579297 38,025 29 429 0
2019-03-20 15:03:02 GMT 39.297089 -10.585506 38,025 29 430 0
2019-03-20 15:02:57 GMT 39.288437 -10.591835 38,025 29 430 0
2019-03-20 15:02:52 GMT 39.279099 -10.598702 38,025 29 430 0
2019-03-20 15:02:46 GMT 39.270309 -10.605210 38,025 29 430 0
2019-03-20 15:02:42 GMT 39.261600 -10.611633 38,025 29 430 0
2019-03-20 15:02:35 GMT 39.251495 -10.619122 38,025 30 431 0
2019-03-20 15:02:31 GMT 39.243759 -10.624914 38,025 30 431 64
2019-03-20 15:02:25 GMT 39.234180 -10.632080 38,000 30 431 64
2019-03-20 15:02:20 GMT 39.225266 -10.638647 38,000 30 431 64
2019-03-20 15:02:15 GMT 39.207226 -10.652100 38,000 30 431 0
2019-03-20 15:02:10 GMT 39.207226 -10.652100 38,000 30 431 0
2019-03-20 15:02:03 GMT 39.195053 -10.661157 38,000 30 431 64
2019-03-20 15:02:00 GMT 39.189770 -10.665039 38,000 30 431 64
2019-03-20 15:01:53 GMT 39.178253 -10.673576 38,000 30 431 0
2019-03-20 15:01:50 GMT 39.171524 -10.678592 38,000 30 432 0
2019-03-20 15:01:42 GMT 39.159256 -10.687727 38,000 30 432 -64
2019-03-20 15:01:39 GMT 39.153271 -10.692200 38,000 30 432 -64
2019-03-20 15:01:31 GMT 39.140285 -10.701904 38,000 30 432 0
2019-03-20 15:01:27 GMT 39.133579 -10.706909 38,000 30 432 0
2019-03-20 15:01:21 GMT 39.123642 -10.714357 38,000 30 432 64
2019-03-20 15:01:16 GMT 39.114914 -10.720947 38,000 30 432 64
2019-03-20 15:01:12 GMT 39.105927 -10.727661 38,000 30 432 -64
2019-03-20 15:01:08 GMT 39.100296 -10.731851 38,000 30 432 -64
2019-03-20 15:01:01 GMT 39.088612 -10.740540 38,000 30 433 -64
2019-03-20 15:00:58 GMT 39.070408 -10.754089 38,000 29 432 0
2019-03-20 15:00:52 GMT 39.070408 -10.754089 38,000 29 432 64
2019-03-20 15:00:48 GMT 39.051041 -10.768273 38,000 29 433 0
2019-03-20 15:00:40 GMT 39.051041 -10.768273 38,000 29 433 0
2019-03-20 15:00:36 GMT 39.044724 -10.772811 38,025 29 433 0
2019-03-20 15:00:30 GMT 39.033783 -10.780812 38,025 29 433 0
2019-03-20 15:00:26 GMT 39.026962 -10.785768 38,000 29 433 0
2019-03-20 15:00:19 GMT 39.016083 -10.793701 38,000 29 433 0
2019-03-20 15:00:15 GMT 39.008774 -10.799011 38,000 29 433 64
2019-03-20 15:00:09 GMT 38.997601 -10.807190 38,000 29 433 0
2019-03-20 15:00:04 GMT 38.989517 -10.813174 38,000 29 433 0
2019-03-20 14:59:59 GMT 38.978794 -10.820984 38,000 29 433 0
2019-03-20 14:59:54 GMT 38.972370 -10.825745 38,000 29 433 0
2019-03-20 14:59:48 GMT 38.960873 -10.834167 38,000 29 433 64
2019-03-20 14:59:45 GMT 38.953674 -10.839505 38,000 29 433 64
2019-03-20 14:59:38 GMT 38.942810 -10.847473 38,000 29 434 0
2019-03-20 14:59:34 GMT 38.936386 -10.852234 38,000 29 434 0
2019-03-20 14:59:27 GMT 38.924606 -10.860881 38,000 29 434 -64
2019-03-20 14:59:23 GMT 38.917328 -10.866314 38,000 29 433 -64
2019-03-20 14:59:19 GMT 38.906342 -10.874375 38,000 29 434 -64
2019-03-20 14:59:13 GMT 38.899654 -10.879272 38,000 29 434 -64
2019-03-20 14:59:08 GMT 38.887161 -10.888407 38,000 29 434 0
2019-03-20 14:59:02 GMT 38.881622 -10.892467 38,000 29 433 0
2019-03-20 14:58:56 GMT 38.870636 -10.900527 38,000 29 434 64
2019-03-20 14:58:52 GMT 38.863312 -10.905841 38,000 29 434 0
2019-03-20 14:58:47 GMT 38.855385 -10.911682 38,000 29 434 0
2019-03-20 14:58:43 GMT 38.846817 -10.917908 38,000 29 434 0
2019-03-20 14:58:37 GMT 38.836304 -10.925664 38,000 29 434 0
2019-03-20 14:58:32 GMT 38.828247 -10.931516 38,000 29 434 0
2019-03-20 14:58:26 GMT 38.817909 -10.939148 38,000 29 434 0
2019-03-20 14:58:22 GMT 38.810989 -10.944174 38,000 29 434 0
2019-03-20 14:58:16 GMT 38.799683 -10.952474 38,000 29 434 -64
2019-03-20 14:58:11 GMT 38.791489 -10.958504 38,000 29 434 0
2019-03-20 14:58:06 GMT 38.782928 -10.964714 38,025 29 434 -64
2019-03-20 14:58:00 GMT 38.765911 -10.977173 38,025 29 434 0
2019-03-20 14:57:55 GMT 38.762695 -10.979581 38,025 29 434 0
2019-03-20 14:57:48 GMT 38.751526 -10.987761 38,025 29 434 0
2019-03-20 14:57:44 GMT 38.744450 -10.992920 38,025 29 434 0
2019-03-20 14:57:41 GMT 38.738251 -10.997494 38,025 29 434 0
2019-03-20 14:57:34 GMT 38.726761 -11.005912 38,025 29 434 0
2019-03-20 14:57:30 GMT 38.719940 -11.010928 38,025 29 434 0
2019-03-20 14:57:23 GMT 38.708267 -11.019466 38,025 29 434 0
2019-03-20 14:57:19 GMT 38.701530 -11.024414 38,025 29 434 64
2019-03-20 14:57:12 GMT 38.690094 -11.032781 38,025 29 435 64
2019-03-20 14:57:08 GMT 38.681652 -11.039001 38,000 29 435 128
2019-03-20 14:57:03 GMT 38.672199 -11.045837 38,000 29 435 128
2019-03-20 14:56:57 GMT 38.662239 -11.053162 37,975 29 435 128
2019-03-20 14:56:52 GMT 38.653931 -11.059232 37,975 29 435 64
2019-03-20 14:56:49 GMT 38.648415 -11.063232 37,975 29 435 64
2019-03-20 14:56:46 GMT 38.643082 -11.067173 37,975 29 436 64
2019-03-20 14:56:42 GMT 38.636356 -11.072083 37,975 29 436 -64
2019-03-20 14:56:38 GMT 38.630398 -11.076416 37,975 29 436 -64
2019-03-20 14:56:35 GMT 38.625229 -11.080190 37,975 29 436 0
2019-03-20 14:56:31 GMT 38.611313 -11.090332 37,975 29 435 -64
2019-03-20 14:56:24 GMT 38.605087 -11.094878 37,975 29 435 0
2019-03-20 14:56:20 GMT 38.598881 -11.099365 37,975 29 436 0
2019-03-20 14:56:17 GMT 38.593735 -11.103118 37,975 29 435 0
2019-03-20 14:56:13 GMT 38.586777 -11.108154 37,975 29 435 0
2019-03-20 14:56:10 GMT 38.579933 -11.113098 37,975 29 435 0
2019-03-20 14:56:07 GMT 38.576340 -11.115716 37,975 29 435 0
2019-03-20 14:56:04 GMT 38.569153 -11.120851 37,975 29 435 0
2019-03-20 14:56:00 GMT 38.563129 -11.125244 37,975 29 435 0
2019-03-20 14:55:54 GMT 38.544250 -11.138823 37,975 29 435 0
2019-03-20 14:55:50 GMT 38.544250 -11.138823 37,975 29 435 -64
2019-03-20 14:55:42 GMT 38.532452 -11.147339 38,000 29 435 -64
2019-03-20 14:55:39 GMT 38.526119 -11.151917 37,975 29 435 -64
2019-03-20 14:55:32 GMT 38.513691 -11.160950 38,000 29 436 -64
2019-03-20 14:55:29 GMT 38.507172 -11.165588 38,000 29 435 0
2019-03-20 14:55:25 GMT 38.499573 -11.171125 38,000 29 435 0
2019-03-20 14:55:22 GMT 38.495300 -11.174255 38,000 29 435 0
2019-03-20 14:55:17 GMT 38.488724 -11.179007 38,000 29 435 0
2019-03-20 14:55:11 GMT 38.476822 -11.187724 38,000 29 435 0
2019-03-20 14:55:07 GMT 38.470688 -11.192143 38,000 29 435 0
2019-03-20 14:55:04 GMT 38.463547 -11.197397 38,000 29 435 0
2019-03-20 14:54:57 GMT 38.451916 -11.205872 38,000 29 436 0
2019-03-20 14:54:49 GMT 38.438416 -11.215698 38,000 29 436 0
2019-03-20 14:54:45 GMT 38.430874 -11.221130 38,000 29 436 0
2019-03-20 14:54:39 GMT 38.420166 -11.228882 38,000 29 437 0
2019-03-20 14:54:36 GMT 38.415421 -11.232300 38,000 29 437 0
2019-03-20 14:54:32 GMT 38.408901 -11.237043 38,000 29 437 0
2019-03-20 14:54:29 GMT 38.404526 -11.240208 38,000 29 437 0
2019-03-20 14:54:26 GMT 38.396896 -11.245734 38,000 29 437 0
2019-03-20 14:54:23 GMT 38.391449 -11.249649 38,000 29 437 0
2019-03-20 14:54:19 GMT 38.380920 -11.257246 38,000 29 437 64
2019-03-20 14:54:16 GMT 38.373871 -11.262330 38,000 29 437 64
2019-03-20 14:54:13 GMT 38.373871 -11.262330 38,000 29 437 64
2019-03-20 14:54:08 GMT 38.367657 -11.266838 38,000 29 437 0
2019-03-20 14:54:04 GMT 38.359928 -11.272450 38,000 29 437 0
2019-03-20 14:53:58 GMT 38.349361 -11.280093 38,000 29 437 -64
2019-03-20 14:53:54 GMT 38.341003 -11.286173 38,000 29 437 -64
2019-03-20 14:53:51 GMT 38.337212 -11.288930 38,000 29 437 -64
2019-03-20 14:53:47 GMT 38.330742 -11.293647 38,000 29 438 -64
2019-03-20 14:53:43 GMT 38.323524 -11.298841 38,000 29 437 -64
2019-03-20 14:53:34 GMT 38.305370 -11.311918 38,000 29 437 0
2019-03-20 14:53:31 GMT 38.295502 -11.318963 38,000 29 437 64
2019-03-20 14:53:20 GMT 38.274948 -11.333742 38,000 29 438 0
2019-03-20 14:53:14 GMT 38.270691 -11.336780 38,000 29 438 0
2019-03-20 14:53:11 GMT 38.266220 -11.339980 37,975 29 438 0
2019-03-20 14:53:03 GMT 38.252068 -11.350131 38,000 29 438 0
2019-03-20 14:53:00 GMT 38.246944 -11.353833 38,000 29 438 0
2019-03-20 14:52:51 GMT 38.229630 -11.366252 38,000 29 438 64
2019-03-20 14:52:44 GMT 38.218918 -11.373888 38,000 29 439 0
2019-03-20 14:52:41 GMT 38.200954 -11.386792 38,000 29 439 0
2019-03-20 14:52:34 GMT 38.200954 -11.386792 38,000 29 439 -64
2019-03-20 14:52:30 GMT 38.194885 -11.391186 38,000 29 439 -64
2019-03-20 14:52:21 GMT 38.176483 -11.404451 38,000 29 440 0
2019-03-20 14:52:17 GMT 38.170486 -11.408776 38,000 29 439 64
2019-03-20 14:52:10 GMT 38.158081 -11.417658 37,975 29 440 128
2019-03-20 14:52:05 GMT 38.149063 -11.424087 37,975 29 440 0
2019-03-20 14:52:01 GMT 38.143021 -11.428411 37,975 29 440 0
2019-03-20 14:51:58 GMT 38.136944 -11.432827 37,975 29 440 0
2019-03-20 14:51:52 GMT 38.126404 -11.440391 38,000 29 440 -64
2019-03-20 14:51:49 GMT 38.115234 -11.448397 38,000 29 440 -64
2019-03-20 14:51:45 GMT 38.108032 -11.453546 38,000 29 440 -64
2019-03-20 14:51:41 GMT 38.108032 -11.453546 38,000 29 440 -64
2019-03-20 14:51:38 GMT 38.101913 -11.457922 38,000 29 440 -64
2019-03-20 14:51:35 GMT 38.096489 -11.461785 38,000 29 440 64
2019-03-20 14:51:29 GMT 38.085178 -11.469906 38,000 29 440 64
2019-03-20 14:51:25 GMT 38.079311 -11.474085 38,000 29 441 0
2019-03-20 14:51:21 GMT 38.071793 -11.479427 38,000 29 441 64
2019-03-20 14:51:17 GMT 38.065300 -11.484057 38,000 29 441 0
2019-03-20 14:51:14 GMT 38.057339 -11.489789 38,000 29 441 0
2019-03-20 14:51:10 GMT 38.052685 -11.493073 38,000 29 441 -64
2019-03-20 14:51:07 GMT 38.046818 -11.497252 38,000 29 441 -64
2019-03-20 14:50:59 GMT 38.032379 -11.507594 38,000 29 440 0
2019-03-20 14:50:56 GMT 38.027313 -11.511224 38,000 29 439 64
2019-03-20 14:50:45 GMT 38.007935 -11.525009 38,000 29 438 0
2019-03-20 14:50:35 GMT 37.989651 -11.538093 38,000 29 439 0
2019-03-20 14:50:27 GMT 37.976624 -11.547332 38,000 29 439 0
2019-03-20 14:50:24 GMT 37.971817 -11.550722 38,000 29 439 0
2019-03-20 14:50:14 GMT 37.953480 -11.563767 38,000 29 439 0
2019-03-20 14:50:07 GMT 37.941193 -11.572577 38,000 29 438 0
2019-03-20 14:50:04 GMT 37.934830 -11.577077 38,000 29 438 -64
2019-03-20 14:49:53 GMT 37.916473 -11.590226 38,000 29 437 -64
2019-03-20 14:49:46 GMT 37.902508 -11.600249 38,000 29 436 64
2019-03-20 14:49:42 GMT 37.897293 -11.603900 38,000 29 436 64
2019-03-20 14:49:32 GMT 37.878662 -11.617224 38,000 29 436 64
2019-03-20 14:49:25 GMT 37.865982 -11.626223 38,000 29 437 0
2019-03-20 14:49:21 GMT 37.860607 -11.630043 38,000 29 437 0
2019-03-20 14:49:15 GMT 37.848457 -11.638761 38,000 29 438 128
2019-03-20 14:49:10 GMT 37.840500 -11.644373 37,975 29 439 256
2019-03-20 14:49:04 GMT 37.830460 -11.651527 37,925 29 439 640
2019-03-20 14:49:00 GMT 37.823273 -11.656614 37,875 29 440 832
2019-03-20 14:48:55 GMT 37.812801 -11.664077 37,800 29 441 640
2019-03-20 14:48:50 GMT 37.804550 -11.669935 37,750 29 441 448
2019-03-20 14:48:40 GMT 37.780014 -11.687349 37,700 29 439 192
2019-03-20 14:48:34 GMT 37.775940 -11.690213 37,550 29 439 256
2019-03-20 14:48:30 GMT 37.767876 -11.695961 37,675 29 439 384
2019-03-20 14:48:24 GMT 37.757961 -11.702947 37,600 29 439 768
2019-03-20 14:48:19 GMT 37.749527 -11.708913 37,550 29 439 960
2019-03-20 14:48:13 GMT 37.730713 -11.722178 37,375 29 442 1088
2019-03-20 14:48:09 GMT 37.730713 -11.722178 37,350 29 442 1088
2019-03-20 14:48:04 GMT 37.717667 -11.731412 37,250 29 444 896
2019-03-20 14:47:58 GMT 37.703339 -11.741580 37,150 29 444 768
2019-03-20 14:47:53 GMT 37.694092 -11.748087 37,100 29 445 448
2019-03-20 14:47:48 GMT 37.694092 -11.748087 37,075 29 445 448
2019-03-20 14:47:43 GMT 37.685154 -11.754475 37,050 29 444 192
2019-03-20 14:47:35 GMT 37.671188 -11.764327 37,025 29 442 192
2019-03-20 14:47:32 GMT 37.665649 -11.768208 37,000 29 442 320
2019-03-20 14:47:25 GMT 37.653500 -11.776806 36,950 29 441 704
2019-03-20 14:47:22 GMT 37.648518 -11.780329 36,925 29 442 832
2019-03-20 14:47:15 GMT 37.634857 -11.789966 36,800 29 442 960
2019-03-20 14:47:12 GMT 37.630455 -11.793047 36,775 29 443 896
2019-03-20 14:47:05 GMT 37.616161 -11.803138 36,650 29 443 768
2019-03-20 14:47:00 GMT 37.601639 -11.813348 36,550 29 444 704
2019-03-20 14:46:52 GMT 37.593658 -11.818952 36,525 29 444 576
2019-03-20 14:46:42 GMT 37.575478 -11.831798 36,425 29 443 512
2019-03-20 14:46:33 GMT 37.560516 -11.842268 36,325 29 443 384
2019-03-20 14:46:22 GMT 37.541428 -11.855709 36,300 29 441 384
2019-03-20 14:46:12 GMT 37.523010 -11.868697 36,225 29 440 512
2019-03-20 14:46:01 GMT 37.502392 -11.883207 36,100 29 440 704
2019-03-20 14:45:51 GMT 37.484756 -11.895622 36,000 29 439 192
2019-03-20 14:45:41 GMT 37.466080 -11.908702 36,000 29 437 0
2019-03-20 14:45:30 GMT 37.448624 -11.921002 36,000 29 437 0
2019-03-20 14:45:19 GMT 37.429722 -11.934257 36,000 29 436 0
2019-03-20 14:45:09 GMT 37.411148 -11.947281 36,000 29 435 0
2019-03-20 14:44:58 GMT 37.392838 -11.960079 36,000 29 435 0
2019-03-20 14:44:50 GMT 37.376793 -11.971336 36,000 29 435 -64
2019-03-20 14:44:47 GMT 37.373016 -11.973929 36,000 29 435 0
2019-03-20 14:44:37 GMT 37.353794 -11.987398 36,000 29 435 0
2019-03-20 14:44:29 GMT 37.340759 -11.996473 36,000 29 434 0
2019-03-20 14:44:26 GMT 37.335686 -11.999996 36,000 29 434 0
2019-03-20 14:44:16 GMT 37.316647 -12.013251 36,000 29 436 0
2019-03-20 14:44:09 GMT 37.304947 -12.021439 36,000 29 436 0
2019-03-20 14:44:04 GMT 37.297714 -12.026465 36,000 29 436 0
2019-03-20 14:43:54 GMT 37.280010 -12.038806 36,000 29 436 0
2019-03-20 14:43:44 GMT 37.260544 -12.052353 36,000 29 435 0
2019-03-20 14:43:36 GMT 37.247284 -12.061615 36,000 29 435 0
2019-03-20 14:43:33 GMT 37.242023 -12.065317 36,000 29 435 0
2019-03-20 14:43:27 GMT 37.232254 -12.072163 36,000 29 436 64
2019-03-20 14:43:24 GMT 37.225388 -12.076955 36,000 29 437 64
2019-03-20 14:43:15 GMT 37.208359 -12.088818 36,000 29 440 64
2019-03-20 14:43:12 GMT 37.205521 -12.090805 36,000 29 441 64
2019-03-20 14:43:03 GMT 37.187576 -12.103310 36,000 29 449 -64
2019-03-20 14:42:52 GMT 37.169769 -12.115641 36,000 29 449 0
2019-03-20 14:42:44 GMT 37.152225 -12.127772 36,000 29 449 0
2019-03-20 14:42:32 GMT 37.131138 -12.142460 36,000 29 449 0
2019-03-20 14:42:21 GMT 37.112980 -12.155118 36,000 29 449 0
2019-03-20 14:42:10 GMT 37.092312 -12.169508 36,000 29 448 0
2019-03-20 14:42:02 GMT 37.076111 -12.180741 36,000 29 444 0
2019-03-20 14:41:50 GMT 37.057163 -12.193869 36,000 29 442 0
2019-03-20 14:41:39 GMT 37.037891 -12.207244 36,000 29 439 128
2019-03-20 14:41:30 GMT 37.019409 -12.220021 36,000 29 439 -64
2019-03-20 14:41:19 GMT 37.001442 -12.232440 36,000 29 439 -64
2019-03-20 14:41:08 GMT 36.982960 -12.245278 36,000 29 439 -64
2019-03-20 14:40:56 GMT 36.959564 -12.261502 36,000 29 440 0
2019-03-20 14:40:49 GMT 36.946014 -12.270852 36,000 28 440 0
2019-03-20 14:40:37 GMT 36.927475 -12.283591 36,025 28 440 0
2019-03-20 14:40:27 GMT 36.909988 -12.295630 36,025 28 440 0
2019-03-20 14:40:17 GMT 36.890350 -12.309129 36,025 29 440 0
2019-03-20 14:40:05 GMT 36.871002 -12.322481 36,025 29 441 0
2019-03-20 14:39:54 GMT 36.850983 -12.336333 36,000 29 441 0
2019-03-20 14:39:46 GMT 36.835007 -12.347374 36,025 28 442 0
2019-03-20 14:39:35 GMT 36.815231 -12.361022 36,025 28 442 0
2019-03-20 14:39:19 GMT 36.787628 -12.379956 36,025 29 442 0
2019-03-20 14:39:14 GMT 36.779388 -12.385624 36,025 29 442 0
2019-03-20 14:38:43 GMT 36.722874 -12.424836 36,025 29 442 0
2019-03-20 14:38:34 GMT 36.706066 -12.436523 36,000 29 443 64
2019-03-20 14:38:22 GMT 36.685135 -12.451344 36,000 29 442 0
2019-03-20 14:38:12 GMT 36.667477 -12.463931 36,000 29 443 0
2019-03-20 14:37:50 GMT 36.628143 -12.492085 36,000 29 442 0
2019-03-20 14:37:40 GMT 36.611660 -12.503669 36,000 28 442 0
2019-03-20 14:37:31 GMT 36.593719 -12.515602 36,000 26 442 0
2019-03-20 14:37:20 GMT 36.574883 -12.526985 36,000 24 441 -64
2019-03-20 14:37:09 GMT 36.554447 -12.538614 36,025 24 441 -64
2019-03-20 14:36:49 GMT 36.515484 -12.560821 36,025 24 441 64
2019-03-20 14:36:36 GMT 36.493881 -12.573109 36,000 24 441 0
2019-03-20 14:36:29 GMT 36.478317 -12.581978 36,000 24 441 0
2019-03-20 14:36:17 GMT 36.458736 -12.593137 36,000 24 441 64
2019-03-20 14:36:08 GMT 36.439091 -12.604299 36,000 24 441 64
2019-03-20 14:35:57 GMT 36.418808 -12.615795 36,000 24 440 64
2019-03-20 14:35:47 GMT 36.402035 -12.625395 35,975 24 440 64
2019-03-20 14:35:34 GMT 36.379028 -12.638569 35,975 24 440 0
2019-03-20 14:35:25 GMT 36.361534 -12.648595 35,975 24 441 0
2019-03-20 14:35:15 GMT 36.343506 -12.658997 36,000 24 440 64
2019-03-20 14:34:38 GMT 36.273968 -12.698793 35,975 24 439 64
2019-03-20 14:34:34 GMT 36.267563 -12.702370 35,975 24 439 -64
2019-03-20 14:34:25 GMT 36.248657 -12.712898 35,975 24 439 0
2019-03-20 14:34:18 GMT 36.238266 -12.718678 35,975 24 439 64
2019-03-20 14:34:14 GMT 36.230350 -12.722986 35,975 24 439 64
2019-03-20 14:34:04 GMT 36.210480 -12.734299 35,975 26 440 0
2019-03-20 14:33:40 GMT 36.168667 -12.762315 35,975 31 440 0
2019-03-20 14:33:33 GMT 36.155354 -12.772541 36,000 33 441 0
2019-03-20 14:33:21 GMT 36.135803 -12.788612 36,000 34 440 0
2019-03-20 14:33:11 GMT 36.120026 -12.801819 36,000 34 441 0
2019-03-20 14:33:01 GMT 36.102081 -12.816753 36,000 34 442 0
2019-03-20 14:32:50 GMT 36.084320 -12.831573 36,000 34 442 0
2019-03-20 14:32:40 GMT 36.067509 -12.845706 36,000 34 441 0
2019-03-20 14:32:30 GMT 36.050308 -12.860126 36,000 34 442 0
2019-03-20 14:32:17 GMT 36.029102 -12.877963 36,000 34 443 0
2019-03-20 14:32:10 GMT 36.014210 -12.890528 36,000 34 443 0
We lost coverage of the aircraft here for a total of 13 minutes
2019-03-20 14:19:27 GMT 34.708008 -13.959419 36,000 33 443 0
2019-03-20 14:19:21 GMT 34.697388 -13.967939 36,000 33 443 0
2019-03-20 14:19:09 GMT 34.677090 -13.984222 36,000 33 443 0
2019-03-20 14:18:58 GMT 34.660145 -13.997784 36,000 33 443 0
2019-03-20 14:18:24 GMT 34.599812 -14.045963 36,000 33 443 0
2019-03-20 14:18:15 GMT 34.585613 -14.057293 36,000 33 443 64
2019-03-20 14:18:03 GMT 34.564713 -14.073944 36,000 33 443 -64
2019-03-20 14:17:53 GMT 34.547653 -14.087556 36,000 33 443 0
2019-03-20 14:17:27 GMT 34.500275 -14.125503 36,000 33 442 0
2019-03-20 14:17:24 GMT 34.495148 -14.129595 36,000 33 443 -64
2019-03-20 14:17:12 GMT 34.478451 -14.142895 36,025 33 443 0
2019-03-20 14:16:58 GMT 34.452850 -14.163283 36,000 33 442 64
2019-03-20 14:16:52 GMT 34.443024 -14.171047 36,000 33 442 64
2019-03-20 14:16:33 GMT 34.409412 -14.197655 36,000 33 442 0
2019-03-20 14:16:30 GMT 34.405315 -14.200916 36,025 33 442 -64
2019-03-20 14:16:19 GMT 34.387348 -14.215164 36,025 33 442 0
2019-03-20 14:16:07 GMT 34.364910 -14.232903 36,025 33 441 0
2019-03-20 14:15:55 GMT 34.345047 -14.248763 36,025 33 441 0
2019-03-20 14:15:48 GMT 34.332321 -14.258881 36,025 33 441 0
2019-03-20 14:15:36 GMT 34.314445 -14.273186 36,025 33 441 64
2019-03-20 14:15:26 GMT 34.294785 -14.288897 36,000 33 441 64
2019-03-20 14:15:10 GMT 34.268875 -14.309468 36,000 33 441 64
2019-03-20 14:15:04 GMT 34.259888 -14.316616 35,975 33 440 64
2019-03-20 14:14:35 GMT 34.207489 -14.358122 35,950 33 440 64
2019-03-20 14:14:32 GMT 34.202442 -14.362106 35,950 33 439 0
2019-03-20 14:14:21 GMT 34.184891 -14.375896 35,950 33 439 0
2019-03-20 14:13:17 GMT 34.075333 -14.462212 36,000 33 438 -64
2019-03-20 14:11:25 GMT 33.883163 -14.613442 36,025 33 441 0
2019-03-20 14:10:43 GMT 33.812752 -14.668350 36,000 32 441 64
2019-03-20 14:09:54 GMT 33.729702 -14.732952 35,975 33 440 64
2019-03-20 14:09:34 GMT 33.696854 -14.758618 35,950 33 440 0
2019-03-20 14:08:02 GMT 33.536957 -14.883508 36,025 33 440 -128
2019-03-20 14:07:58 GMT 33.531204 -14.887988 36,050 33 440 -64
2019-03-20 14:07:38 GMT 33.496059 -14.915174 36,050 32 442 0
2019-03-20 14:07:26 GMT 33.476532 -14.929871 36,050 31 444 0
2019-03-20 14:07:16 GMT 33.460117 -14.942191 36,050 31 444 0
2019-03-20 14:07:00 GMT 33.429535 -14.964892 36,050 31 445 64
2019-03-20 14:06:22 GMT 33.362408 -15.014667 36,025 31 447 64
2019-03-20 14:05:55 GMT 33.316364 -15.048971 36,000 31 447 0
2019-03-20 14:05:46 GMT 33.301300 -15.060168 36,000 31 447 64
2019-03-20 14:05:39 GMT 33.287643 -15.070271 36,000 31 447 64
2019-03-20 14:04:57 GMT 33.213318 -15.125482 35,975 31 447 0
2019-03-20 14:04:14 GMT 33.139839 -15.179630 35,975 31 446 0
2019-03-20 14:04:07 GMT 33.128357 -15.188104 35,975 31 446 0
2019-03-20 14:03:51 GMT 33.096222 -15.211890 35,975 31 446 0
2019-03-20 14:03:43 GMT 33.084595 -15.220459 35,975 31 447 0
2019-03-20 14:02:57 GMT 33.003719 -15.280301 36,000 31 447 -64
2019-03-20 14:02:51 GMT 32.993774 -15.287585 36,000 31 446 -64
2019-03-20 14:02:18 GMT 32.934036 -15.331805 36,025 31 447 -64
2019-03-20 14:02:00 GMT 32.901810 -15.355536 36,025 31 448 0
2019-03-20 14:01:33 GMT 32.857174 -15.388146 36,025 31 449 0
2019-03-20 14:01:16 GMT 32.826591 -15.410567 36,025 31 449 0
2019-03-20 14:01:05 GMT 32.808060 -15.424146 36,025 31 449 64
2019-03-20 14:00:51 GMT 32.783390 -15.442237 36,000 31 449 0
2019-03-20 14:00:42 GMT 32.767235 -15.454008 36,000 31 449 0
2019-03-20 14:00:31 GMT 32.748138 -15.467871 36,000 31 449 0
2019-03-20 14:00:25 GMT 32.736969 -15.476001 36,000 31 450 0
2019-03-20 14:00:13 GMT 32.716553 -15.490887 36,000 31 450 0
2019-03-20 14:00:00 GMT 32.691727 -15.509108 36,000 31 449 0
2019-03-20 13:59:51 GMT 32.677277 -15.519672 36,000 31 449 0
2019-03-20 13:59:43 GMT 32.663498 -15.529724 36,000 31 449 0
2019-03-20 13:59:34 GMT 32.645687 -15.542740 36,000 31 449 -64
2019-03-20 13:59:22 GMT 32.626369 -15.556809 36,000 31 449 0
2019-03-20 13:59:12 GMT 32.608566 -15.569824 36,000 31 449 0
2019-03-20 13:59:02 GMT 32.590057 -15.583266 36,000 31 449 0
2019-03-20 13:58:52 GMT 32.571899 -15.596466 36,025 31 449 0
2019-03-20 13:58:42 GMT 32.554260 -15.609218 36,025 31 449 0
2019-03-20 13:58:36 GMT 32.544346 -15.616393 36,025 31 448 64
2019-03-20 13:58:31 GMT 32.534500 -15.623547 36,000 31 448 64
2019-03-20 13:58:25 GMT 32.525162 -15.630359 36,000 31 449 64
2019-03-20 13:58:22 GMT 32.517113 -15.636235 36,000 31 449 64
2019-03-20 13:58:17 GMT 32.510651 -15.640961 36,000 31 449 0
2019-03-20 13:58:10 GMT 32.498348 -15.649912 36,000 31 449 0
2019-03-20 13:58:07 GMT 32.492020 -15.654565 36,000 31 449 0
2019-03-20 13:58:00 GMT 32.480518 -15.662973 36,000 31 449 0
2019-03-20 13:57:51 GMT 32.462952 -15.675787 36,000 31 448 0
2019-03-20 13:57:45 GMT 32.454731 -15.681750 36,000 31 447 -64
2019-03-20 13:57:39 GMT 32.443417 -15.689934 36,000 31 448 0
2019-03-20 13:57:36 GMT 32.437134 -15.694519 36,000 31 448 0
2019-03-20 13:57:29 GMT 32.425278 -15.703088 36,000 31 447 -64
2019-03-20 13:57:24 GMT 32.416000 -15.709833 36,000 31 447 -64
2019-03-20 13:57:20 GMT 32.407791 -15.715778 36,025 31 447 -64
2019-03-20 13:57:15 GMT 32.400265 -15.721155 36,025 31 447 -64
2019-03-20 13:57:09 GMT 32.389652 -15.728835 36,025 31 447 -64
2019-03-20 13:56:59 GMT 32.372147 -15.741446 36,025 31 447 0
2019-03-20 13:56:52 GMT 32.360508 -15.749854 36,025 31 447 0
2019-03-20 13:56:49 GMT 32.353683 -15.754779 36,025 31 447 0
2019-03-20 13:56:37 GMT 32.334206 -15.768912 36,025 31 447 0
2019-03-20 13:56:27 GMT 32.316517 -15.781748 36,025 31 447 -64
2019-03-20 13:56:17 GMT 32.299164 -15.794330 36,025 31 447 0
2019-03-20 13:56:12 GMT 32.289330 -15.801423 36,025 31 447 64
2019-03-20 13:56:07 GMT 32.281174 -15.807349 36,025 31 447 128
2019-03-20 13:56:01 GMT 32.270477 -15.815044 36,025 31 447 64
2019-03-20 13:55:56 GMT 32.260796 -15.822106 36,000 31 447 128
2019-03-20 13:55:46 GMT 32.243225 -15.834760 36,000 31 447 64
2019-03-20 13:55:35 GMT 32.223450 -15.849042 36,000 31 447 -64
2019-03-20 13:55:25 GMT 32.205860 -15.861679 36,000 31 446 -64
2019-03-20 13:55:16 GMT 32.188591 -15.874123 36,000 31 446 0
2019-03-20 13:55:05 GMT 32.171135 -15.886623 36,000 31 446 64
2019-03-20 13:54:54 GMT 32.151348 -15.900804 36,000 31 447 0
2019-03-20 13:54:45 GMT 32.134827 -15.912653 36,000 31 448 0
2019-03-20 13:54:37 GMT 32.122486 -15.921488 36,000 31 449 0
2019-03-20 13:54:34 GMT 32.116562 -15.925726 36,000 31 449 0
2019-03-20 13:54:23 GMT 32.097069 -15.939649 36,000 31 449 -64
2019-03-20 13:54:13 GMT 32.077518 -15.953662 36,000 31 448 0
2019-03-20 13:54:03 GMT 32.061493 -15.965167 36,000 31 448 0
2019-03-20 13:53:55 GMT 32.047260 -15.975466 36,000 31 447 64
2019-03-20 13:53:52 GMT 32.024773 -15.991217 36,025 30 449 -64
2019-03-20 13:53:42 GMT 32.024773 -15.991217 36,025 29 450 -128
2019-03-20 13:53:33 GMT 32.006424 -16.003071 36,050 27 451 -192
2019-03-20 13:53:21 GMT 31.985718 -16.015265 36,050 25 453 0
2019-03-20 13:53:09 GMT 31.962906 -16.027315 36,050 22 453 0
2019-03-20 13:53:01 GMT 31.945169 -16.035723 36,050 20 454 0
2019-03-20 13:52:51 GMT 31.925989 -16.043962 36,050 18 455 0
2019-03-20 13:52:40 GMT 31.904663 -16.052124 36,050 16 454 64
2019-03-20 13:52:30 GMT 31.883675 -16.059210 36,050 14 455 64
2019-03-20 13:52:20 GMT 31.863281 -16.065144 36,025 12 456 64
2019-03-20 13:52:09 GMT 31.840382 -16.070644 36,025 10 456 0
2019-03-20 13:52:00 GMT 31.820114 -16.074535 36,025 8 455 0
2019-03-20 13:51:49 GMT 31.799089 -16.077705 36,025 5 455 64
2019-03-20 13:51:38 GMT 31.777489 -16.080061 36,025 3 454 64
2019-03-20 13:51:27 GMT 31.754517 -16.081560 36,025 1 454 64
2019-03-20 13:51:17 GMT 31.732985 -16.082062 36,000 0 453 64
2019-03-20 13:51:07 GMT 31.710892 -16.081615 36,000 358 452 64
2019-03-20 13:50:57 GMT 31.665997 -16.077612 36,000 352 449 0
2019-03-20 13:50:45 GMT 31.665997 -16.077612 36,000 354 450 0
2019-03-20 13:50:35 GMT 31.644768 -16.074261 36,000 352 448 0
2019-03-20 13:50:30 GMT 31.633921 -16.072229 36,000 351 447 0
2019-03-20 13:50:27 GMT 31.625427 -16.070683 36,000 351 447 0
2019-03-20 13:50:13 GMT 31.600662 -16.066051 35,975 351 447 0
2019-03-20 13:50:03 GMT 31.580107 -16.062178 35,975 351 446 0
2019-03-20 13:49:55 GMT 31.561798 -16.058781 36,000 351 446 -64
2019-03-20 13:49:51 GMT 31.555710 -16.057650 36,000 351 446 0
2019-03-20 13:49:42 GMT 31.536896 -16.054150 36,000 351 445 0
2019-03-20 13:49:32 GMT 31.515518 -16.050110 36,000 351 445 0
2019-03-20 13:49:25 GMT 31.499588 -16.047148 36,000 351 445 0
2019-03-20 13:49:13 GMT 31.476791 -16.042839 36,000 351 444 0
2019-03-20 13:49:04 GMT 31.458298 -16.039286 36,000 351 444 -64
2019-03-20 13:48:54 GMT 31.436214 -16.035151 36,000 351 444 -64
2019-03-20 13:48:42 GMT 31.411821 -16.030590 36,000 351 444 0
2019-03-20 13:48:38 GMT 31.406141 -16.029547 36,000 351 444 0
2019-03-20 13:48:32 GMT 31.393616 -16.027222 36,000 351 444 0
2019-03-20 13:48:23 GMT 31.374298 -16.023613 36,025 351 444 0
2019-03-20 13:48:17 GMT 31.363825 -16.021692 36,025 351 444 0
2019-03-20 13:48:12 GMT 31.353258 -16.019714 36,025 351 444 -64
2019-03-20 13:48:00 GMT 31.329098 -16.015156 36,025 351 444 -64
2019-03-20 13:47:57 GMT 31.322891 -16.014027 36,025 351 443 0
2019-03-20 13:47:49 GMT 31.306458 -16.010958 36,025 351 443 -64
2019-03-20 13:47:45 GMT 31.298653 -16.009497 36,025 351 443 0
2019-03-20 13:47:39 GMT 31.286503 -16.007191 36,025 351 443 64
2019-03-20 13:47:36 GMT 31.280319 -16.006058 36,025 351 443 0
2019-03-20 13:47:30 GMT 31.268921 -16.003902 36,025 351 443 0
2019-03-20 13:47:25 GMT 31.258804 -16.002018 36,025 351 443 0
2019-03-20 13:47:19 GMT 31.246445 -15.999756 36,025 351 443 0
2019-03-20 13:47:11 GMT 31.228266 -15.996368 36,025 351 443 0
2019-03-20 13:47:08 GMT 31.220856 -15.995017 36,025 351 443 64
2019-03-20 13:47:04 GMT 31.216116 -15.994116 36,025 351 443 64
2019-03-20 13:46:59 GMT 31.205475 -15.992109 36,025 351 443 64
2019-03-20 13:46:53 GMT 31.193817 -15.989941 36,025 351 443 0
2019-03-20 13:46:49 GMT 31.185299 -15.988403 36,025 351 443 0
2019-03-20 13:46:38 GMT 31.162998 -15.984283 36,025 351 443 0
2019-03-20 13:46:33 GMT 31.153336 -15.982469 36,025 351 443 0
2019-03-20 13:46:28 GMT 31.143539 -15.980658 36,025 351 442 0
2019-03-20 13:46:21 GMT 31.127838 -15.977729 36,025 351 442 0
2019-03-20 13:46:18 GMT 31.122574 -15.976760 36,025 351 442 0
2019-03-20 13:46:12 GMT 31.109802 -15.974390 36,000 351 442 0
2019-03-20 13:46:09 GMT 31.101288 -15.972775 36,000 351 442 0
2019-03-20 13:46:01 GMT 31.087027 -15.970111 36,000 351 442 64
2019-03-20 13:45:51 GMT 31.068146 -15.966581 36,000 352 442 0
2019-03-20 13:45:45 GMT 31.056610 -15.964481 36,000 352 442 0
2019-03-20 13:45:40 GMT 31.046387 -15.962640 36,000 352 442 0
2019-03-20 13:45:30 GMT 31.025436 -15.958773 36,000 352 441 0
2019-03-20 13:45:20 GMT 31.005066 -15.955003 36,000 352 441 64
2019-03-20 13:45:09 GMT 30.983772 -15.951105 35,975 352 441 0
2019-03-20 13:44:59 GMT 30.962358 -15.947205 35,975 352 441 0
2019-03-20 13:44:56 GMT 30.954073 -15.945667 35,975 352 441 0
2019-03-20 13:44:48 GMT 30.940153 -15.943085 35,975 351 440 -64
2019-03-20 13:44:45 GMT 30.934204 -15.942024 35,975 351 440 0
2019-03-20 13:44:38 GMT 30.920700 -15.939546 35,975 352 440 0
2019-03-20 13:44:33 GMT 30.910128 -15.937592 35,975 352 440 64
2019-03-20 13:44:27 GMT 30.898676 -15.935559 35,975 351 440 64
2019-03-20 13:44:19 GMT 30.882149 -15.932483 35,975 351 440 0
2019-03-20 13:44:16 GMT 30.875120 -15.931219 35,975 351 440 0
2019-03-20 13:44:03 GMT 30.850727 -15.926770 35,975 352 440 -64
2019-03-20 13:43:52 GMT 30.828094 -15.922636 35,975 352 440 0
2019-03-20 13:43:44 GMT 30.797699 -15.917143 35,975 351 439 0
2019-03-20 13:43:35 GMT 30.792768 -15.916278 35,975 351 439 0
2019-03-20 13:43:32 GMT 30.787628 -15.915312 35,975 351 439 0
2019-03-20 13:43:22 GMT 30.767817 -15.911664 36,000 351 439 0
2019-03-20 13:43:12 GMT 30.744308 -15.907269 36,000 351 439 0
2019-03-20 13:43:02 GMT 30.728016 -15.904193 36,000 351 439 0
2019-03-20 13:42:50 GMT 30.704041 -15.899586 35,975 351 439 64
2019-03-20 13:42:41 GMT 30.681789 -15.895404 35,975 351 440 0
2019-03-20 13:42:28 GMT 30.657814 -15.890955 36,000 352 441 0
2019-03-20 13:42:19 GMT 30.641327 -15.887900 35,975 352 441 0
2019-03-20 13:42:06 GMT 30.611355 -15.882385 35,975 351 441 0
2019-03-20 13:41:58 GMT 30.598413 -15.880023 36,000 352 442 0
2019-03-20 13:41:48 GMT 30.577469 -15.876160 36,000 352 442 0
2019-03-20 13:41:34 GMT 30.549362 -15.870990 36,000 351 442 0
2019-03-20 13:41:27 GMT 30.534870 -15.868268 36,000 351 442 0
2019-03-20 13:41:18 GMT 30.516953 -15.864958 36,000 351 443 0
2019-03-20 13:41:15 GMT 30.510942 -15.863818 36,000 351 443 0
2019-03-20 13:41:05 GMT 30.491135 -15.860219 36,000 351 444 0
2019-03-20 13:40:59 GMT 30.476818 -15.857611 36,000 352 444 0
2019-03-20 13:40:53 GMT 30.464722 -15.855426 36,000 352 444 0
2019-03-20 13:40:45 GMT 30.449478 -15.852625 36,000 351 444 0
2019-03-20 13:40:37 GMT 30.433899 -15.849756 36,000 351 445 0
2019-03-20 13:40:34 GMT 30.427567 -15.848602 36,000 351 445 0
2019-03-20 13:40:23 GMT 30.406036 -15.844709 36,000 352 446 0
2019-03-20 13:40:13 GMT 30.384796 -15.840831 36,000 351 446 0
2019-03-20 13:40:02 GMT 30.340748 -15.832837 36,000 351 445 0
2019-03-20 13:39:51 GMT 30.340748 -15.832837 36,000 351 445 0
2019-03-20 13:39:41 GMT 30.319147 -15.828882 36,000 351 445 0
2019-03-20 13:39:34 GMT 30.303314 -15.825967 36,000 351 445 0
2019-03-20 13:39:31 GMT 30.298943 -15.825201 36,000 351 445 0
2019-03-20 13:39:26 GMT 30.285908 -15.822784 36,000 351 445 0
2019-03-20 13:39:19 GMT 30.275526 -15.820862 36,000 351 445 0
2019-03-20 13:39:10 GMT 30.255323 -15.817181 36,000 352 445 0
2019-03-20 13:39:05 GMT 30.245041 -15.815358 36,000 352 446 0
2019-03-20 13:38:59 GMT 30.233002 -15.813150 36,000 352 446 64
2019-03-20 13:38:50 GMT 30.214125 -15.809821 36,000 352 446 0
2019-03-20 13:38:47 GMT 30.208694 -15.808841 36,000 352 447 0
2019-03-20 13:38:38 GMT 30.190659 -15.805610 36,000 352 448 64
2019-03-20 13:38:27 GMT 30.167450 -15.801517 35,975 352 449 256
2019-03-20 13:38:21 GMT 30.155655 -15.799384 35,950 352 448 320
2019-03-20 13:38:16 GMT 30.122511 -15.793451 35,800 351 444 640
2019-03-20 13:38:05 GMT 30.122511 -15.793451 35,875 352 445 320
2019-03-20 13:37:51 GMT 30.090225 -15.787569 35,725 351 443 512
2019-03-20 13:37:44 GMT 30.079590 -15.785596 35,675 351 443 576
2019-03-20 13:37:32 GMT 30.057104 -15.781256 35,575 351 442 448
2019-03-20 13:37:23 GMT 30.038223 -15.777390 35,525 350 441 448
2019-03-20 13:37:13 GMT 30.017023 -15.773071 35,475 353 440 0
2019-03-20 13:37:08 GMT 30.006874 -15.771533 35,475 1 448 448
2019-03-20 13:37:02 GMT 29.994957 -15.770764 35,050 1 448 448
2019-03-20 13:36:52 GMT 29.973728 -15.771808 35,325 7 456 1536
2019-03-20 13:36:41 GMT 29.951569 -15.775990 34,975 10 473 832
2019-03-20 13:36:30 GMT 29.928341 -15.781091 34,675 10 469 1728
2019-03-20 13:36:19 GMT 29.905205 -15.786169 34,425 10 472 1152
2019-03-20 13:36:09 GMT 29.882580 -15.791177 34,250 10 473 768
2019-03-20 13:35:58 GMT 29.860420 -15.796024 34,125 10 472 640
2019-03-20 13:35:48 GMT 29.837311 -15.801086 33,975 10 472 1024
2019-03-20 13:35:36 GMT 29.812775 -15.806474 33,575 10 473 1216
2019-03-20 13:35:31 GMT 29.798355 -15.809643 33,650 10 474 1152
2019-03-20 13:35:25 GMT 29.789062 -15.811650 33,575 10 474 1088
2019-03-20 13:35:15 GMT 29.767273 -15.816510 33,400 10 475 1024
2019-03-20 13:35:05 GMT 29.744568 -15.821527 33,225 10 475 960
2019-03-20 13:34:54 GMT 29.722046 -15.826439 33,075 10 475 832
2019-03-20 13:34:50 GMT 29.709091 -15.829292 33,000 10 474 768
2019-03-20 13:34:43 GMT 29.697954 -15.831730 32,925 10 474 768
2019-03-20 13:34:33 GMT 29.675329 -15.836684 32,800 10 473 704
2019-03-20 13:34:23 GMT 29.653774 -15.841370 32,675 10 472 832
2019-03-20 13:34:12 GMT 29.630825 -15.846324 32,575 10 469 448
2019-03-20 13:34:02 GMT 29.608620 -15.851117 32,400 10 469 1536
2019-03-20 13:33:50 GMT 29.582970 -15.856610 32,225 10 468 576
2019-03-20 13:33:43 GMT 29.567188 -15.859949 32,150 10 467 576
2019-03-20 13:33:40 GMT 29.562300 -15.861027 31,625 10 464 576
2019-03-20 13:33:37 GMT 29.554667 -15.862642 32,100 10 465 576
2019-03-20 13:33:30 GMT 29.541538 -15.865550 32,025 10 464 768
2019-03-20 13:33:27 GMT 29.534637 -15.867057 31,975 10 464 1152
2019-03-20 13:33:19 GMT 29.517191 -15.870882 31,775 10 466 1280
2019-03-20 13:33:13 GMT 29.502045 -15.874188 31,675 10 463 768
2019-03-20 13:33:09 GMT 29.496964 -15.875297 31,650 10 464 640
2019-03-20 13:33:06 GMT 29.487118 -15.877452 31,600 10 463 768
2019-03-20 13:32:57 GMT 29.472361 -15.880683 31,475 10 463 1152
2019-03-20 13:32:51 GMT 29.455627 -15.884276 31,300 10 463 768
2019-03-20 13:32:47 GMT 29.450546 -15.885333 31,250 10 464 1152
2019-03-20 13:32:37 GMT 29.429031 -15.889981 31,100 10 461 640
2019-03-20 13:32:26 GMT 29.406910 -15.894739 31,000 10 459 704
2019-03-20 13:32:16 GMT 29.386427 -15.899156 30,900 10 456 832
2019-03-20 13:32:06 GMT 29.364075 -15.903978 30,725 10 455 1088
2019-03-20 13:32:03 GMT 29.355469 -15.905834 30,625 10 455 1344
2019-03-20 13:31:55 GMT 29.342239 -15.908678 30,475 10 455 1152
2019-03-20 13:31:41 GMT 29.309753 -15.915689 30,225 10 453 704
2019-03-20 13:31:34 GMT 29.299047 -15.918005 30,175 10 453 768
2019-03-20 13:31:30 GMT 29.287811 -15.920457 30,100 10 451 832
2019-03-20 13:31:24 GMT 29.277214 -15.922744 30,025 10 450 832
2019-03-20 13:31:18 GMT 29.262037 -15.926029 29,900 10 449 960
2019-03-20 13:31:13 GMT 29.255814 -15.927376 29,850 10 448 1216
2019-03-20 13:31:08 GMT 29.242859 -15.930230 29,700 10 449 1344
2019-03-20 13:31:03 GMT 29.234852 -15.931953 29,625 10 449 1216
2019-03-20 13:31:00 GMT 29.224657 -15.934161 29,550 10 448 704
2019-03-20 13:30:53 GMT 29.213699 -15.936514 29,500 10 446 704
2019-03-20 13:30:49 GMT 29.204132 -15.938574 29,425 10 445 960
2019-03-20 13:30:42 GMT 29.191883 -15.941270 29,325 10 445 1088
2019-03-20 13:30:37 GMT 29.180008 -15.943856 29,200 10 444 1216
2019-03-20 13:30:32 GMT 29.170795 -15.945847 29,100 10 444 1280
2019-03-20 13:30:28 GMT 29.159670 -15.948217 29,000 10 444 1216
2019-03-20 13:30:21 GMT 29.149246 -15.950458 28,700 10 444 1280
2019-03-20 13:30:15 GMT 29.135975 -15.953333 28,775 10 443 1024
2019-03-20 13:30:10 GMT 29.128006 -15.955001 28,700 10 442 960
2019-03-20 13:30:07 GMT 29.117889 -15.957166 28,625 10 442 1152
2019-03-20 13:30:00 GMT 29.106506 -15.959580 28,500 10 441 1152
2019-03-20 13:29:56 GMT 29.097475 -15.961519 28,425 10 440 1152
2019-03-20 13:29:49 GMT 29.085526 -15.964033 28,300 10 440 1216
2019-03-20 13:29:39 GMT 29.065401 -15.968305 28,100 10 438 1152
2019-03-20 13:29:34 GMT 29.053711 -15.970794 27,975 10 438 1408
2019-03-20 13:29:29 GMT 29.044453 -15.972775 27,875 10 437 1472
2019-03-20 13:29:22 GMT 29.030182 -15.975811 27,675 10 437 1600
2019-03-20 13:29:19 GMT 29.024185 -15.977132 27,600 10 438 1664
2019-03-20 13:29:14 GMT 29.011597 -15.979773 27,425 10 438 1472
2019-03-20 13:29:08 GMT 29.003036 -15.981621 27,300 10 438 1536
2019-03-20 13:29:02 GMT 28.988544 -15.984730 27,125 10 437 1408
2019-03-20 13:28:58 GMT 28.982300 -15.986058 27,075 10 437 1280
2019-03-20 13:28:53 GMT 28.970621 -15.988554 26,950 10 435 1280
2019-03-20 13:28:47 GMT 28.960520 -15.990708 26,825 10 435 1472
2019-03-20 13:28:41 GMT 28.948603 -15.993293 26,650 10 434 1664
2019-03-20 13:28:36 GMT 28.939711 -15.995178 26,525 10 434 1728
2019-03-20 13:28:28 GMT 28.921234 -15.999210 26,275 10 434 1792
2019-03-20 13:28:25 GMT 28.918343 -15.999810 26,200 10 434 1920
2019-03-20 13:28:15 GMT 28.898745 -16.004009 25,900 10 434 1728
2019-03-20 13:28:10 GMT 28.884018 -16.007187 25,700 10 433 1728
2019-03-20 13:28:05 GMT 28.877884 -16.008507 25,600 10 433 1664
2019-03-20 13:27:54 GMT 28.857376 -16.012890 25,325 10 431 1408
2019-03-20 13:27:43 GMT 28.835449 -16.017591 25,075 10 428 1344
2019-03-20 13:27:34 GMT 28.816956 -16.021551 24,850 10 425 1472
2019-03-20 13:27:23 GMT 28.796749 -16.025928 24,575 10 422 1664
2019-03-20 13:27:13 GMT 28.776173 -16.030399 24,275 10 420 1792
2019-03-20 13:27:02 GMT 28.756348 -16.034599 23,975 10 419 1664
2019-03-20 13:26:52 GMT 28.736418 -16.038855 23,650 10 418 1984
2019-03-20 13:26:45 GMT 28.722061 -16.041941 23,425 10 416 1920
2019-03-20 13:26:41 GMT 28.716446 -16.043110 23,350 10 416 1792
2019-03-20 13:26:36 GMT 28.703293 -16.045902 23,150 10 414 1472
2019-03-20 13:26:31 GMT 28.696428 -16.047363 23,050 10 412 1408
2019-03-20 13:26:24 GMT 28.682648 -16.050339 22,900 10 409 1472
2019-03-20 13:26:20 GMT 28.677017 -16.051500 22,850 10 409 1472
2019-03-20 13:26:10 GMT 28.657232 -16.055765 22,450 10 407 2176
2019-03-20 13:26:03 GMT 28.644196 -16.058578 22,200 10 406 1984
2019-03-20 13:26:00 GMT 28.638563 -16.059805 22,100 10 406 1920
2019-03-20 13:25:54 GMT 28.619247 -16.063913 21,800 10 405 2112
2019-03-20 13:25:49 GMT 28.619247 -16.063913 21,750 10 405 2048
2019-03-20 13:25:41 GMT 28.603510 -16.067289 21,450 10 403 1856
2019-03-20 13:25:38 GMT 28.599564 -16.068138 21,400 10 403 1792
2019-03-20 13:25:31 GMT 28.580606 -16.072189 21,125 10 399 1920
2019-03-20 13:25:28 GMT 28.580606 -16.072189 21,075 10 400 1984
2019-03-20 13:25:20 GMT 28.566036 -16.075260 20,800 10 397 1920
2019-03-20 13:25:17 GMT 28.560776 -16.076391 20,700 10 397 1856
2019-03-20 13:25:10 GMT 28.547150 -16.079283 20,450 10 395 1984
2019-03-20 13:25:07 GMT 28.541967 -16.080376 20,375 10 395 1920
2019-03-20 13:24:59 GMT 28.528282 -16.083284 20,150 10 392 1728
2019-03-20 13:24:56 GMT 28.522741 -16.084469 20,050 10 391 1792
2019-03-20 13:24:49 GMT 28.509476 -16.087313 19,800 10 389 2048
2019-03-20 13:24:46 GMT 28.504074 -16.088453 19,700 10 388 2304
2019-03-20 13:24:36 GMT 28.486153 -16.092278 19,175 10 391 3776
2019-03-20 13:24:29 GMT 28.473631 -16.094971 18,625 10 395 2752
2019-03-20 13:24:25 GMT 28.467159 -16.096371 18,575 10 395 2496
2019-03-20 13:24:18 GMT 28.454590 -16.099064 18,375 10 392 1024
2019-03-20 13:24:14 GMT 28.448305 -16.100410 18,350 10 389 640
2019-03-20 13:24:07 GMT 28.433361 -16.103642 18,250 10 380 832
2019-03-20 13:24:04 GMT 28.429871 -16.104395 18,200 10 378 1024
2019-03-20 13:23:57 GMT 28.418697 -16.106819 18,050 10 374 1792
2019-03-20 13:23:54 GMT 28.412554 -16.108110 17,925 10 373 2112
2019-03-20 13:23:46 GMT 28.396446 -16.111559 17,600 10 370 2176
2019-03-20 13:23:43 GMT 28.394989 -16.111874 17,575 10 370 2176
2019-03-20 13:23:36 GMT 28.382994 -16.114466 17,300 10 368 2176
2019-03-20 13:23:33 GMT 28.377081 -16.115705 17,175 10 367 2240
2019-03-20 13:23:25 GMT 28.361023 -16.119162 16,825 10 364 2176
2019-03-20 13:23:22 GMT 28.359577 -16.119474 16,800 10 364 2176
2019-03-20 13:23:15 GMT 28.342163 -16.123228 16,400 10 361 2432
2019-03-20 13:23:12 GMT 28.342163 -16.123228 16,400 10 361 2432
2019-03-20 13:23:05 GMT 28.331314 -16.125553 16,125 10 358 2176
2019-03-20 13:23:02 GMT 28.325687 -16.126799 16,000 10 358 2176
2019-03-20 13:22:51 GMT 28.307949 -16.130676 15,575 11 355 2432
2019-03-20 13:22:41 GMT 28.291798 -16.134285 15,175 11 352 2432
2019-03-20 13:22:30 GMT 28.274479 -16.138163 14,750 11 349 2688
2019-03-20 13:22:20 GMT 28.257908 -16.141825 14,250 11 349 2880
2019-03-20 13:22:10 GMT 28.241913 -16.145308 13,800 10 348 2368
2019-03-20 13:21:58 GMT 28.223829 -16.149364 13,325 13 345 2560
2019-03-20 13:21:48 GMT 28.208328 -16.154696 12,900 24 348 2432
2019-03-20 13:21:38 GMT 28.194036 -16.163473 12,525 35 349 2304
2019-03-20 13:21:27 GMT 28.181030 -16.175732 12,100 49 351 2496
2019-03-20 13:21:16 GMT 28.170387 -16.192341 11,650 63 352 2240
2019-03-20 13:21:06 GMT 28.163544 -16.210169 11,300 68 348 1920
2019-03-20 13:20:55 GMT 28.157364 -16.227757 11,025 68 336 1216
2019-03-20 13:20:45 GMT 28.151348 -16.245008 10,850 68 324 1024
2019-03-20 13:20:35 GMT 28.145855 -16.260735 10,650 68 310 1088
2019-03-20 13:20:24 GMT 28.140518 -16.276192 10,400 68 298 2240
2019-03-20 13:20:14 GMT 28.135300 -16.291246 9,900 68 296 2944
2019-03-20 13:20:03 GMT 28.130028 -16.306620 9,400 68 293 2816
2019-03-20 13:19:49 GMT 28.123278 -16.326439 8,400 69 290 2880
2019-03-20 13:19:37 GMT 28.117180 -16.344263 8,100 69 288 2688
2019-03-20 13:19:33 GMT 28.114712 -16.351587 7,875 69 284 2496
2019-03-20 13:19:21 GMT 28.109591 -16.366613 7,450 69 277 2304

Making use of Plane Finder data

You are free to use the raw flight data, aircraft information and images provided in this report for your own purposes provided the data is correctly attributed to Plane Finder. We ask that you please credit Plane Finder and link to planefinder.net in close proximity to the content.

Optionally one of the following logos (no smaller then 150x24px) can be used and must link to planefinder.net

Embedding the Plane Finder map

You are welcome to embed the Plane Finder playback map on your website to offer visitors a more interactive experience. We suggest using the following HTML code:

<iframe src="//planefinder.net/data/report/U21902-G-UZHL-7700-squawk-2019-03-20/map" width="800" height="600" seamless="seamless"></iframe>

Where our data comes from

Plane Finder has a global network of data feeds and antenna radars that receive data broadcast directly from aircraft. The primary technologies used are ADS-B and MLAT. We also show feeds from the FAA and a FLARM glider feed.

Click here to find out more about the Plane Finder network.

How we collect our data